Category: European Union

  • MIL-OSI Europe: President Meloni pays official visit to His Holiness Leo XIV

    Source: Government of Italy (English)

    The President of the Council of Ministers, Giorgia Meloni, paid an official visit to His Holiness Leo XIV today. President Meloni was received in audience by the Holy Father in the private library of the Apostolic Palace. At the end of the meeting, President Meloni gifted the Pope a 17th century view of the Church of Santi Domenico e Sisto and of the ancient Dominican monastery that is home to the Angelicum, the Pontifical University of St. Thomas Aquinas, where Leo XIV completed a significant part of his education.

    The Italian delegation also included the Vice-Presidents of the Council of Ministers, Antonio Tajani and Matteo Salvini, and Undersecretary of State to the Presidency of the Council of Ministers Alfredo Mantovano.

    President Meloni went on to meet with the Secretary of State of His Holiness, Cardinal Pietro Parolin, and the Secretary for Relations with States and International Organizations, Monsignor Paul Richard Gallagher. During the meeting, in the context of the excellent relations between Italy and the Holy See, both international and bilateral matters were addressed.

    President Meloni reaffirmed her appreciation of the Apostolic See’s commitment to peace in Ukraine, in Gaza and in all crisis areas. She also focused on the importance of religious freedom and the protection of Christian communities in the Middle East that have suffered the consequences of the area’s crises and instability.
    Lastly, there was shared acknowledgement of the excellent collaboration with Catholic religious organisations for cooperation in Africa, as part of the Mattei Plan.

    MIL OSI Europe News

  • MIL-OSI: Societe Generale: Termination of the liquidity contract and half-year statement

    Source: GlobeNewswire (MIL-OSI)

    TERMINATION OF THE LIQUIDITY CONTRACT AND HALF-YEAR STATEMENT 

    Regulated Information

    Paris, 2 July 2025

    Press release related to the termination of the liquidity contract and the half-year statement, which specifies the number of executed share transactions and the volume exchanged under the liquidity contract of Societe Generale.

    As the daily liquidity of Societe Generale shares has been satisfactory for several years, Societe Generale decided, as of 1 July 2025, to terminate the liquidity contract entrusted since 2011 to Rothschild Martin Maurel.

    The following resources appeared on the liquidity account per the liquidity contract as of 30 June 2025:

    • 0 share
    • € 5,573,179.76

    As a reminder:

    • on the date of signing the liquidity account, 22 August 2011, the following resources appeared on the liquidity account:
      • 0 share
      • € 170,000,000
    • the amendment to the liquidity account on 19 December 2018 reduced these resources to:
      • 0 share
      • € 5,000,000
    • as of 31 December 2024, the status of the liquidity account was:
      • 0 share
      • € 5,429,174

    The following information presents the number of buy and sell transactions, expressed in terms of both the number of shares and the volume exchanged from 1 January to 30 June 2025 within the framework of the liquidity agreement signed between Societe Generale and Rothschild Martin Maurel. As a reminder, the liquidity contract was temporarily suspended from 10 February to 9 April 2025 included, which corresponded to the share buyback period announced on 6 February 2025.

    DATE NUMBER OF PURCHASE TRANSACTIONS NUMBER OF SALE TRANSACTIONS QUANTITY OF PURCHASE QUANTITY OF SALE TOTAL PURCHASED AMOUNT TOTAL SOLD AMOUNT
    02/01/2025 89 111 25 500 25 500 688 576,50 688 066,50
    03/01/2025 50 54 26 000 19 500 699 036,00 524 823,00
    06/01/2025 76 127 22 000 28 500 598 972,00 774 373,50
    07/01/2025 72 46 28 100 23 100 760 667,00 626 587,50
    08/01/2025 65 82 20 000 25 000 546 340,00 683 850,00
    09/01/2025 81 105 27 000 27 000 733 590,00 734 994,00
    10/01/2025 101 57 25 000 18 500 684 400,00 506 141,50
    13/01/2025 52 80 21 500 28 000 584 090,50 763 644,00
    14/01/2025 63 92 29 000 25 000 809 593,00 698 150,00
    15/01/2025 64 90 24 000 28 000 685 536,00 798 000,00
    16/01/2025 49 56 26 500 21 500 762 829,00 619 415,00
    17/01/2025 51 55 21 000 21 000 604 464,00 604 737,00
    20/01/2025 62 84 25 000 30 000 731 450,00 876 360,00
    21/01/2025 80 93 22 500 22 300 658 980,00 653 813,70
    22/01/2025 52 55 30 500 25 700 896 059,50 756 094,00
    23/01/2025 56 66 14 000 19 000 418 726,00 566 333,00
    24/01/2025 113 123 31 500 31 500 949 725,00 950 922,00
    27/01/2025 72 56 21 000 13 800 639 345,00 420 127,20
    28/01/2025 66 60 20 500 27 700 629 309,00 848 894,20
    29/01/2025 83 94 27 000 27 000 830 169,00 831 438,00
    30/01/2025 72 28 21 000 21 000 650 979,00 650 958,00
    31/01/2025 65 50 30 000 30 000 937 200,00 937 680,00
    01/2025 1 534 1 664 538 600 538 600 15 500 036,50 15 515 402,10
    03/02/2025 76 42 22 500 22 500 683 235,00 684 697,50
    04/02/2025 92 65 22 500 22 500 692 280,00 692 550,00
    05/02/2025 188 111 40 000 31 000 1 232 600,00 956 195,00
    06/02/2025 16 41 9 400 18 200 308 583,20 601 510,00
    07/02/2025 134 135 27 000 27 200 956 583,00 965 953,60
    02/2025 506 394 121 400 121 400 3 873 281,20 3 900 906,10
    10/04/2025 136 90 32 300 22 300 1 205 532,90 829 961,40
    11/04/2025 143 160 35 500 45 500 1 295 608,00 1 670 669,00
    14/04/2025 78 91 20 000 20 000 767 620,00 768 160,00
    15/04/2025 119 136 25 000 25 000 989 500,00 990 575,00
    16/04/2025 127 131 25 870 25 870 1 028 332,50 1 028 798,16
    17/04/2025 74 108 25 000 25 000 991 875,00 992 425,00
    22/04/2025 114 93 20 000 20 000 797 900,00 798 540,00
    23/04/2025 61 70 12 500 12 500 517 937,50 518 362,50
    24/04/2025 127 119 20 000 20 000 830 960,00 831 520,00
    25/04/2025 116 126 25 000 25 000 1 058 700,00 1 058 950,00
    28/04/2025 67 94 22 000 22 000 951 698,00 952 600,00
    29/04/2025 127 167 52 000 52 000 2 293 356,00 2 296 788,00
    30/04/2025 177 236 64 000 59 500 2 920 064,00 2 713 259,50
    04/2025 1 466 1 621 379 170 374 670 15 649 083,90 15 450 608,56
    DATE NUMBER OF PURCHASE TRANSACTIONS NUMBER OF SALE TRANSACTIONS QUANTITY OF PURCHASE QUANTITY OF SALE TOTAL PURCHASED AMOUNT TOTAL SOLD AMOUNT
    02/05/2025 79 122 32 018 36 518 1 478 719,31 1 687 058,56
    05/05/2025 111 131 41 500 41 500 1 920 703,00 1 922 487,50
    06/05/2025 111 105 47 500 35 000 2 181 722,50 1 603 105,00
    07/05/2025 53 63 15 000 19 000 679 575,00 861 935,00
    08/05/2025 68 107 28 000 36 500 1 287 776,00 1 678 379,50
    09/05/2025 70 74 32 000 32 000 1 485 344,00 1 486 528,00
    12/05/2025 128 123 45 000 45 000 2 140 965,00 2 142 990,00
    13/05/2025 92 114 40 000 40 000 1 885 200,00 1 887 400,00
    14/05/2025 62 96 35 000 35 000 1 663 865,00 1 665 545,00
    15/05/2025 83 88 45 000 40 000 2 167 290,00 1 926 200,00
    16/05/2025 63 63 20 000 25 000 959 000,00 1 201 275,00
    19/05/2025 110 128 36 000 36 000 1 754 460,00 1 756 152,00
    20/05/2025 34 47 17 000 17 000 835 057,00 835 788,00
    21/05/2025 49 99 32 100 26 600 1 587 152,40 1 315 130,60
    22/05/2025 46 40 20 500 26 000 999 498,00 1 274 052,00
    23/05/2025 83 71 36 400 22 900 1 767 838,80 1 103 161,70
    26/05/2025 14 84 3 600 17 100 174 182,40 824 510,70
    27/05/2025 86 97 27 500 27 500 1 333 970,00 1 335 125,00
    28/05/2025 82 37 23 000 11 800 1 109 612,00 565 043,00
    29/05/2025 37 110 17 500 28 700 846 877,50 1 390 141,90
    30/05/2025 162 151 32 500 22 500 1 570 400,00 1 086 052,50
    05/2025 1 623 1 950 627 118 621 618 29 829 207,91 29 548 060,96
    02/06/2025 69 105 15 000 25 000 717 105,00 1 200 375,00
    03/06/2025 56 50 14 300 14 100 684 869,90 675 531,00
    04/06/2025 71 33 21 500 11 700 1 039 417,50 563 694,30
    05/06/2025 28 74 9 000 19 000 431 127,00 914 850,00
    06/06/2025 57 60 17 500 17 500 861 962,50 862 942,50
    09/06/2025 53 40 12 400 12 400 607 339,60 607 897,60
    10/06/2025 114 122 32 000 32 000 1 538 720,00 1 541 056,00
    11/06/2025 56 77 21 500 21 500 1 030 817,50 1 031 419,50
    12/06/2025 63 57 18 000 18 000 872 262,00 873 504,00
    13/06/2025 84 62 22 000 22 000 1 057 760,00 1 059 014,00
    16/06/2025 61 97 27 051 27 051 1 344 597,01 1 345 516,74
    17/06/2025 51 3 12 300 2 100 600 818,10 102 908,40
    18/06/2025 33 43 10 500 20 700 509 491,50 1 009 621,80
    19/06/2025 37 9 8 200 2 100 393 583,60 101 791,20
    20/06/2025 31 35 8 500 10 600 407 796,00 509 361,80
    23/06/2025 60 20 18 000 9 700 845 244,00 456 656,60
    24/06/2025 57 106 16 000 28 300 766 000,00 1 360 890,40
    25/06/2025 63 82 22 000 21 700 1 042 844,00 1 030 120,70
    26/06/2025 92 49 14 400 14 700 683 164,80 698 646,90
    06/2025 1 136 1 124 320 151 330 151 15 434 920,01 15 945 798,44
    S1/2025 6 265 6 753 1 986 439 1 986 439 80 286 529,52 80 360 776,16

    Press contacts:
    Jean-Baptiste Froville_+33 1 58 98 68 00_ jean-baptiste.froville@socgen.com
    Fanny Rouby_+33 1 57 29 11 12_ fanny.rouby@socgen.com


    Societe Generale

    Societe Generale is a top tier European Bank with around 119,000 employees serving more than 26 million clients in 62 countries across the world. We have been supporting the development of our economies for 160 years, providing our corporate, institutional, and individual clients with a wide array of value-added advisory and financial solutions. Our long-lasting and trusted relationships with the clients, our cutting-edge expertise, our unique innovation, our ESG capabilities and leading franchises are part of our DNA and serve our most essential objective – to deliver sustainable value creation for all our stakeholders.

    The Group runs three complementary sets of businesses, embedding ESG offerings for all its clients:

    • French Retail, Private Banking and Insurance, with leading retail bank SG and insurance franchise, premium private banking services, and the leading digital bank BoursoBank.
    • Global Banking and Investor Solutions, a top tier wholesale bank offering tailored-made solutions with distinctive global leadership in equity derivatives, structured finance and ESG.
    • Mobility, International Retail Banking and Financial Services, comprising well-established universal banks (in Czech Republic, Romania and several African countries), Ayvens (the new ALD I LeasePlan brand), a global player in sustainable mobility, as well as specialized financing activities.

    Committed to building together with its clients a better and sustainable future, Societe Generale aims to be a leading partner in the environmental transition and sustainability overall. The Group is included in the principal socially responsible investment indices: DJSI (Europe), FTSE4Good (Global and Europe), Bloomberg Gender-Equality Index, Refinitiv Diversity and Inclusion Index, Euronext Vigeo (Europe and Eurozone), STOXX Global ESG Leaders indexes, and the MSCI Low Carbon Leaders Index (World and Europe).

    In case of doubt regarding the authenticity of this press release, please go to the end of the Group News page on societegenerale.com website where official Press Releases sent by Societe Generale can be certified using blockchain technology. A link will allow you to check the document’s legitimacy directly on the web page.

    For more information, you can follow us on Twitter/X @societegenerale or visit our website societegenerale.com.

    Attachment

    The MIL Network

  • MIL-OSI: Societe Generale: Termination of the liquidity contract and half-year statement

    Source: GlobeNewswire (MIL-OSI)

    TERMINATION OF THE LIQUIDITY CONTRACT AND HALF-YEAR STATEMENT 

    Regulated Information

    Paris, 2 July 2025

    Press release related to the termination of the liquidity contract and the half-year statement, which specifies the number of executed share transactions and the volume exchanged under the liquidity contract of Societe Generale.

    As the daily liquidity of Societe Generale shares has been satisfactory for several years, Societe Generale decided, as of 1 July 2025, to terminate the liquidity contract entrusted since 2011 to Rothschild Martin Maurel.

    The following resources appeared on the liquidity account per the liquidity contract as of 30 June 2025:

    • 0 share
    • € 5,573,179.76

    As a reminder:

    • on the date of signing the liquidity account, 22 August 2011, the following resources appeared on the liquidity account:
      • 0 share
      • € 170,000,000
    • the amendment to the liquidity account on 19 December 2018 reduced these resources to:
      • 0 share
      • € 5,000,000
    • as of 31 December 2024, the status of the liquidity account was:
      • 0 share
      • € 5,429,174

    The following information presents the number of buy and sell transactions, expressed in terms of both the number of shares and the volume exchanged from 1 January to 30 June 2025 within the framework of the liquidity agreement signed between Societe Generale and Rothschild Martin Maurel. As a reminder, the liquidity contract was temporarily suspended from 10 February to 9 April 2025 included, which corresponded to the share buyback period announced on 6 February 2025.

    DATE NUMBER OF PURCHASE TRANSACTIONS NUMBER OF SALE TRANSACTIONS QUANTITY OF PURCHASE QUANTITY OF SALE TOTAL PURCHASED AMOUNT TOTAL SOLD AMOUNT
    02/01/2025 89 111 25 500 25 500 688 576,50 688 066,50
    03/01/2025 50 54 26 000 19 500 699 036,00 524 823,00
    06/01/2025 76 127 22 000 28 500 598 972,00 774 373,50
    07/01/2025 72 46 28 100 23 100 760 667,00 626 587,50
    08/01/2025 65 82 20 000 25 000 546 340,00 683 850,00
    09/01/2025 81 105 27 000 27 000 733 590,00 734 994,00
    10/01/2025 101 57 25 000 18 500 684 400,00 506 141,50
    13/01/2025 52 80 21 500 28 000 584 090,50 763 644,00
    14/01/2025 63 92 29 000 25 000 809 593,00 698 150,00
    15/01/2025 64 90 24 000 28 000 685 536,00 798 000,00
    16/01/2025 49 56 26 500 21 500 762 829,00 619 415,00
    17/01/2025 51 55 21 000 21 000 604 464,00 604 737,00
    20/01/2025 62 84 25 000 30 000 731 450,00 876 360,00
    21/01/2025 80 93 22 500 22 300 658 980,00 653 813,70
    22/01/2025 52 55 30 500 25 700 896 059,50 756 094,00
    23/01/2025 56 66 14 000 19 000 418 726,00 566 333,00
    24/01/2025 113 123 31 500 31 500 949 725,00 950 922,00
    27/01/2025 72 56 21 000 13 800 639 345,00 420 127,20
    28/01/2025 66 60 20 500 27 700 629 309,00 848 894,20
    29/01/2025 83 94 27 000 27 000 830 169,00 831 438,00
    30/01/2025 72 28 21 000 21 000 650 979,00 650 958,00
    31/01/2025 65 50 30 000 30 000 937 200,00 937 680,00
    01/2025 1 534 1 664 538 600 538 600 15 500 036,50 15 515 402,10
    03/02/2025 76 42 22 500 22 500 683 235,00 684 697,50
    04/02/2025 92 65 22 500 22 500 692 280,00 692 550,00
    05/02/2025 188 111 40 000 31 000 1 232 600,00 956 195,00
    06/02/2025 16 41 9 400 18 200 308 583,20 601 510,00
    07/02/2025 134 135 27 000 27 200 956 583,00 965 953,60
    02/2025 506 394 121 400 121 400 3 873 281,20 3 900 906,10
    10/04/2025 136 90 32 300 22 300 1 205 532,90 829 961,40
    11/04/2025 143 160 35 500 45 500 1 295 608,00 1 670 669,00
    14/04/2025 78 91 20 000 20 000 767 620,00 768 160,00
    15/04/2025 119 136 25 000 25 000 989 500,00 990 575,00
    16/04/2025 127 131 25 870 25 870 1 028 332,50 1 028 798,16
    17/04/2025 74 108 25 000 25 000 991 875,00 992 425,00
    22/04/2025 114 93 20 000 20 000 797 900,00 798 540,00
    23/04/2025 61 70 12 500 12 500 517 937,50 518 362,50
    24/04/2025 127 119 20 000 20 000 830 960,00 831 520,00
    25/04/2025 116 126 25 000 25 000 1 058 700,00 1 058 950,00
    28/04/2025 67 94 22 000 22 000 951 698,00 952 600,00
    29/04/2025 127 167 52 000 52 000 2 293 356,00 2 296 788,00
    30/04/2025 177 236 64 000 59 500 2 920 064,00 2 713 259,50
    04/2025 1 466 1 621 379 170 374 670 15 649 083,90 15 450 608,56
    DATE NUMBER OF PURCHASE TRANSACTIONS NUMBER OF SALE TRANSACTIONS QUANTITY OF PURCHASE QUANTITY OF SALE TOTAL PURCHASED AMOUNT TOTAL SOLD AMOUNT
    02/05/2025 79 122 32 018 36 518 1 478 719,31 1 687 058,56
    05/05/2025 111 131 41 500 41 500 1 920 703,00 1 922 487,50
    06/05/2025 111 105 47 500 35 000 2 181 722,50 1 603 105,00
    07/05/2025 53 63 15 000 19 000 679 575,00 861 935,00
    08/05/2025 68 107 28 000 36 500 1 287 776,00 1 678 379,50
    09/05/2025 70 74 32 000 32 000 1 485 344,00 1 486 528,00
    12/05/2025 128 123 45 000 45 000 2 140 965,00 2 142 990,00
    13/05/2025 92 114 40 000 40 000 1 885 200,00 1 887 400,00
    14/05/2025 62 96 35 000 35 000 1 663 865,00 1 665 545,00
    15/05/2025 83 88 45 000 40 000 2 167 290,00 1 926 200,00
    16/05/2025 63 63 20 000 25 000 959 000,00 1 201 275,00
    19/05/2025 110 128 36 000 36 000 1 754 460,00 1 756 152,00
    20/05/2025 34 47 17 000 17 000 835 057,00 835 788,00
    21/05/2025 49 99 32 100 26 600 1 587 152,40 1 315 130,60
    22/05/2025 46 40 20 500 26 000 999 498,00 1 274 052,00
    23/05/2025 83 71 36 400 22 900 1 767 838,80 1 103 161,70
    26/05/2025 14 84 3 600 17 100 174 182,40 824 510,70
    27/05/2025 86 97 27 500 27 500 1 333 970,00 1 335 125,00
    28/05/2025 82 37 23 000 11 800 1 109 612,00 565 043,00
    29/05/2025 37 110 17 500 28 700 846 877,50 1 390 141,90
    30/05/2025 162 151 32 500 22 500 1 570 400,00 1 086 052,50
    05/2025 1 623 1 950 627 118 621 618 29 829 207,91 29 548 060,96
    02/06/2025 69 105 15 000 25 000 717 105,00 1 200 375,00
    03/06/2025 56 50 14 300 14 100 684 869,90 675 531,00
    04/06/2025 71 33 21 500 11 700 1 039 417,50 563 694,30
    05/06/2025 28 74 9 000 19 000 431 127,00 914 850,00
    06/06/2025 57 60 17 500 17 500 861 962,50 862 942,50
    09/06/2025 53 40 12 400 12 400 607 339,60 607 897,60
    10/06/2025 114 122 32 000 32 000 1 538 720,00 1 541 056,00
    11/06/2025 56 77 21 500 21 500 1 030 817,50 1 031 419,50
    12/06/2025 63 57 18 000 18 000 872 262,00 873 504,00
    13/06/2025 84 62 22 000 22 000 1 057 760,00 1 059 014,00
    16/06/2025 61 97 27 051 27 051 1 344 597,01 1 345 516,74
    17/06/2025 51 3 12 300 2 100 600 818,10 102 908,40
    18/06/2025 33 43 10 500 20 700 509 491,50 1 009 621,80
    19/06/2025 37 9 8 200 2 100 393 583,60 101 791,20
    20/06/2025 31 35 8 500 10 600 407 796,00 509 361,80
    23/06/2025 60 20 18 000 9 700 845 244,00 456 656,60
    24/06/2025 57 106 16 000 28 300 766 000,00 1 360 890,40
    25/06/2025 63 82 22 000 21 700 1 042 844,00 1 030 120,70
    26/06/2025 92 49 14 400 14 700 683 164,80 698 646,90
    06/2025 1 136 1 124 320 151 330 151 15 434 920,01 15 945 798,44
    S1/2025 6 265 6 753 1 986 439 1 986 439 80 286 529,52 80 360 776,16

    Press contacts:
    Jean-Baptiste Froville_+33 1 58 98 68 00_ jean-baptiste.froville@socgen.com
    Fanny Rouby_+33 1 57 29 11 12_ fanny.rouby@socgen.com


    Societe Generale

    Societe Generale is a top tier European Bank with around 119,000 employees serving more than 26 million clients in 62 countries across the world. We have been supporting the development of our economies for 160 years, providing our corporate, institutional, and individual clients with a wide array of value-added advisory and financial solutions. Our long-lasting and trusted relationships with the clients, our cutting-edge expertise, our unique innovation, our ESG capabilities and leading franchises are part of our DNA and serve our most essential objective – to deliver sustainable value creation for all our stakeholders.

    The Group runs three complementary sets of businesses, embedding ESG offerings for all its clients:

    • French Retail, Private Banking and Insurance, with leading retail bank SG and insurance franchise, premium private banking services, and the leading digital bank BoursoBank.
    • Global Banking and Investor Solutions, a top tier wholesale bank offering tailored-made solutions with distinctive global leadership in equity derivatives, structured finance and ESG.
    • Mobility, International Retail Banking and Financial Services, comprising well-established universal banks (in Czech Republic, Romania and several African countries), Ayvens (the new ALD I LeasePlan brand), a global player in sustainable mobility, as well as specialized financing activities.

    Committed to building together with its clients a better and sustainable future, Societe Generale aims to be a leading partner in the environmental transition and sustainability overall. The Group is included in the principal socially responsible investment indices: DJSI (Europe), FTSE4Good (Global and Europe), Bloomberg Gender-Equality Index, Refinitiv Diversity and Inclusion Index, Euronext Vigeo (Europe and Eurozone), STOXX Global ESG Leaders indexes, and the MSCI Low Carbon Leaders Index (World and Europe).

    In case of doubt regarding the authenticity of this press release, please go to the end of the Group News page on societegenerale.com website where official Press Releases sent by Societe Generale can be certified using blockchain technology. A link will allow you to check the document’s legitimacy directly on the web page.

    For more information, you can follow us on Twitter/X @societegenerale or visit our website societegenerale.com.

    Attachment

    The MIL Network

  • MIL-OSI: TSplus Joins the First Sino-French Economic Meetings in Amiens

    Source: GlobeNewswire (MIL-OSI)

    AMIENS, France, July 02, 2025 (GLOBE NEWSWIRE) — TSplus proudly participated in the first-ever Sino-French Economic Meetings, held on June 9–10 in Amiens. This landmark event gathered key public and private figures from France and China to foster dialogue, innovation, and business collaboration between the two countries. For TSplus, it marked a unique opportunity to strengthen its presence in China and reinforce its commitment to international development.

    Over two days, the event brought together a wide array of Chinese and French stakeholders, with highlights including roundtable discussions, innovative showcase stands, and speed business meetings. The program was rich in insight and networking opportunities, designed to unlock future commercial cooperation.

    TSplus was represented by a dedicated team:

    • Dominique Benoit, Founder and President
    • François Stoop, International Sales Director
    • Mariam Essafi, Customer Success Manager
    • Yi Zheng, Presales engineer

    “This event was a fantastic opportunity to engage in meaningful conversations with influential members of the Chinese economic scene. We believe in building bridges and creating lasting partnerships,” said Dominique Benoit.

    Forging New Partnerships and Opening Doors to the Chinese Market

    Throughout the event, the TSplus team had the pleasure of meeting several high-profile Chinese officials, including:

    • HU JunYing, Deputy Director, Shanghai Minhang District Commission of Commerce
    • JIANG Bo, President, Centre des Entreprises Françaises/Francophones
    • ZHANG Bin, Deputy Director, Shanghai Hongqiao International CBD Administrative Committee
    • CHEN Zhongyu, Director, Division of Commerce Development, Shanghai Hongqiao International CBD
    • CHEN Wei, Deputy Director, Chenjiaqiao Sub-District Office, People’s Government of Changning District

    These valuable connections reflect the growing interest in collaborations between Chinese institutions and innovative French companies like TSplus.

    The event also featured a prestigious Franco-Chinese gastronomic lunch, organized by the Somme Business Club and hosted by renowned culinary figures including M. Collet (MOF 1998) and M. Ho, President of the Chinese Gastronomy Academy. Cultural highlights such as the presence of a descendant of Jules Verne brought a rich symbolic dimension to the gathering.

    On the second day, TSplus attended the roundtable:
    “Do French Entrepreneurial Initiatives Have a Place in the Chinese Market?”
    The session offered valuable perspectives on how French companies can adapt and thrive within China’s economic landscape. The day concluded with a B2B lunch, allowing the TSplus team to exchange ideas and explore synergies with Chinese entrepreneurs.

    TSplus: Committed to Global Growth, with a Focus on China

    Participation in this historic event aligns with TSplus’ broader strategy: investing in strategic markets and cultivating long-term international partnerships. With a strong presence in over 140 countries, TSplus continues to expand its reach by engaging directly with key actors on the ground.

    Are you a Chinese business looking to collaborate with a trusted French tech partner?
    Explore the TSplus Partner Program and discover our secure, powerful remote access solutions tailored for modern businesses.

    Check the photo carousel from the event!

    ——

    About TSplus
    TSplus is a global software company specializing in secure remote access, application delivery, and IT infrastructure solutions. Our suite of products—Remote Access, Remote Support, Advanced Security, and Server Monitoring—is designed to help businesses of all sizes simplify their IT operations while improving flexibility and security. Trusted by over 500,000 companies across more than 140 countries, TSplus empowers organizations to succeed in the age of hybrid work and digital transformation.

    Press Contact:

    Caleb Zaharris

    Marketing Director at TSplus

    Caleb.zaharris@tsplus.net

    A photo accompanying this announcement is available at https://www.globenewswire.com/NewsRoom/AttachmentNg/6f37ed77-8b4d-4a40-b027-d379e4541c43

    The MIL Network

  • MIL-OSI Africa: The African Development Bank and the United Nations Human Settlements Programme (UN-Habitat) scale up drive for sustainable urbanization in Africa


    Download logo

    The African Development Bank Group (www.AfDB.org) and the United Nations Human Settlements Programme (UN-Habitat) have signed a Memorandum of Understanding to enhance collaboration and accelerate action on sustainable urban transformation across the continent.

    Under the agreement, the organizations will jointly develop action plans that combine technical assistance, policy support, capacity-building, and knowledge exchange to local governments in four key spheres: urban governance, housing, municipal finance, and infrastructure development.

    The agreement was formalized on 1 July 2025 on the sidelines of the Fourth International Conference on Financing for Development (FfD4) in Seville, Spain.

    The Memorandum of Understanding renews an agreement signed in 2006 by the two entities to collaborate in the water and sanitation sector.

    The African Development Bank and UN-Habitat also plan to coordinate their efforts to tap into key regional and global platforms to mobilize resources for urban development in Africa, including the World Urban Forum and the Africa Investment Forum.

    “I believe that there are ways that we can use the capital markets to develop cities much better,” said African Development Bank President Akinwumi Adesina. “I am delighted that the Bank and UN-Habitat are partnering on the development of cities – I am very excited about this partnership.”

    “Cities are the engine of growth, and we need to mobilize a lot more private capital in the development of cities, which will require a different approach from the conventional public sector capital,” he added.

    The Executive Director of UN-Habitat, Anacláudia Rossbach, said: “Urbanization in Africa can either be a driver of prosperity or a deepening of poverty and exclusion. Through this renewed collaboration with the African Development Bank, we aim to help cities become engines of resilience, equity, and climate action, leaving no one behind.”

    The African Development Bank Group has significantly expanded its urban portfolio in recent years, including through the creation of a dedicated urban development division and the Urban and Municipal Development Fund to support African cities in delivering transformative, climate-resilient urban solutions. Most recently, UN-Habitat and the Bank Group signed a service agreement to prepare the Eswatini EcoCity Masterplan under an integrated urban and agricultural initiative that aims to deliver sustainable housing and create economic opportunities for over 100,000 people in Eswatini.

    Africa’s rapid growth and urbanization – the continent’s population is projected to reach 2.4 billion by 2050 –presents both opportunities and challenges. With more than half of urban residents living in informal settlements lacking basic services, adequate housing, and climate-resilient infrastructure, local governments are under increasing strain. Through this renewed partnership, the African Development Bank and UN-Habitat are joining forces to help cities respond to these challenges and harness urban growth as a driver of sustainable development.

    Distributed by APO Group on behalf of African Development Bank Group (AfDB).

    Contacts:
    UN-Habitat

    Katerina Bezgachina
    Chief of Communications
    ekaterina.bezgachina@un.org

    Gonzalo Ruiz
    Partnerships Officer
    Ruiz.gonzalo@un.org
    +254 714228562

    unhabitat-info@un.org

    African Development Bank
    Olufemi Terry
    Communications and External Relations
    media@afdb.org

    About UN-Habitat:
    UN-Habitat is the United Nations entity working for sustainable urbanization. With pro-grammes in over 90 countries, it supports policymakers and communities to create socially and environmentally sustainable cities and towns. UN-Habitat promotes transformative change in urban areas through knowledge, policy advice, technical assistance, and collaborative action. To know more, visit https://UNHabitat.org/ or follow us on social media @ UNHABITAT.

    MIL OSI Africa

  • MIL-OSI USA: Boozman Congratulates Summer Interns on Service to Arkansas

    US Senate News:

    Source: United States Senator for Arkansas – John Boozman

    U.S. Senator John Boozman pictured with his Washington, D.C. interns on the steps of the U.S. Capitol.
    WASHINGTON—U.S. Senator John Boozman (R-AR) recognized the college students who served as interns?in his Washington, D.C. and state offices during the first summer session.
    “These bright, energetic young people did a great job supporting Arkansans through their work in my Capitol Hill and Natural State offices this summer. Their contributions benefited my staff as we provided important constituent services and represented our state’s voices in the Senate. I am proud of them and have confidence that this experience has strengthened their understanding of the legislative process as well as encouraged a continued interest in public service,” Boozman said.?
    Harrison McCarty, Alyxander Logan, Ryann Richards, Alex Siwiec, Travis Thrailkill and Reese Turner completed a five-week internship in Boozman’s Washington office. Constituent relations were their primary duty. Additionally, they assisted the legislative and communications teams with various projects and each was also able to shadow the senator for a day –– a unique opportunity?giving them?rare insight into the inner workings of the U.S. Senate.

    U.S. Senator John Boozman pictured with his Arkansas interns at an event in Atkins in May.
    Rhealyn Schmidt, Kyra Chanthakhot and Braden Carr supported Arkansans through internships in the senator’s state offices in Jonesboro, Fort Smith and Little Rock, respectively. They primarily helped with outreach to local communities and learned more about the senator’s casework services for constituents in need of assistance with issues involving federal agencies.
    Harrison McCarty is from Little Rock and graduated from Pulaski Academy in 2022. He is a rising senior at Georgetown University. Harrison attends Georgetown’s School of Foreign Service, where he studies culture and politics while pursuing minors in economics and Spanish. He interns with the Georgetown University Alumni and Student Federal Credit Union in addition to being a member of the Blue and Gray Tour Guide Society and creating content for Georgetown’s social media pages. 
    Alyxander Logan is from Fort Smith and a 2022 graduate of Southside High School. He is an incoming senior at Oklahoma Christian University in Edmond, Oklahoma. He is double majoring in communication/leadership pre-law and English with a minor in Bible. He is the president of his Social Club, Delta Gamma Sigma, and is senior class president. Upon graduation, Alyx plans to attend law school.
    Ryann Richards is from Bentonville and graduated from Bentonville High School in 2022. She is a rising senior at the University of Arkansas. She is majoring in advertising and public relations, with minors in marketing and communication. Ryann is the Vice President of the University of Arkansas Panhellenic Council, overseeing operations for the 2025 Panhellenic Community. She is also a member of Lambda Pi Eta Honor Society and Public Relations Student Society. 
    Alex Siwiec is from Rogers and a 2022 graduate of Rogers Heritage High School. She is a rising senior at Pepperdine University majoring in marketing. Alex is an active member of the Waves Marketing Club, which provides full-service strategies to local businesses and clients, and holds the role of Director of Dialogues in Delta Gamma. She has enriched her education through courses at Parsons School of Design as well as studying abroad in Florence, Italy. 
    Travis Thrailkill is from Mena and graduated from Mena High School in 2022. He is an incoming senior at the University of Arkansas and is double majoring in political science and history. He is an active member of the Sigma Phi Epsilon fraternity and participates in community outreach and philanthropy. Following his graduation, Travis plans to attend law school with a concentration in the corporate field.
    Reese Turner is from Cabot and graduated from Cabot High School in 2022. She is a rising senior at the University of Arkansas. She is majoring in political science and history with a minor in legal studies. Reese is involved with the University’s Associated Student Government Senate and the Student Ambassador program. She is an active member of Chi Omega Psi, where she has served on both the sisterhood and recruitment committees. After graduating, Reese plans to attend law school. 
    Rhealyn Schmidt is from Walnut Ridge. She is a graduate of Walnut Ridge High School and currently attends the University of Arkansas where she studies political studies and agribusiness pre-law, with minors in English and legal studies. She is involved in the Agribusiness Club, Associated Student Government and Student Ambassadors on campus. She also serves as Director of Philanthropy of her sorority, Delta Delta Delta. After graduating, Rhealyn plans to attend law school. 
    Kyra Chanthakhot is from Fort Smith. She graduated from Northside High School and currently attends the University of Arkansas – Fort Smith, where she is studying biology with a minor in political science. Upon graduation, Kyra plans to attend law school.
    Braden Carr is from Paragould where he graduated from Greene County Tech High School. He is a rising junior at the University of Arkansas at Little Rock. A member of the Donaghey Scholars Honors Program, Braden is double majoring in political science and criminal justice. He is a member of the UALR Student Government Association and chair of the Arkansas Federation of College Republicans. Upon graduation, Braden plans to pursue a career in public service. 
    Learn more about internship opportunities in Boozman’s Washington and state offices here.

    MIL OSI USA News

  • MIL-OSI United Kingdom: Public advisory on Blue Green Algae

    Source: Northern Ireland City of Armagh

    With the summer holidays underway, now is a good time to highlight the dangers posed to humans and pets by blue-green algae and the importance of reporting any sightings of the algae.

    As a precautionary measure, warning signage will be erected at sites where blue-green algae has been detected, to warn visitors of its presence and advise that adults, children, and animals should avoid contact with the algae and the water close to it due to its harmful effects.

    Swallowing the water can cause stomach upsets or severe illness to people and death to animals. Contact with the water or the blue-green algae can also cause rashes and skin problems.

    HOW TO REPORT BLUE-GREEN ALGAE

    Members of the public are advised to report concerns using the Bloomin’ Algae App to help provide a rapid and more comprehensive picture of harmful algal blooms in the area and inform the relevant environment agency, local authority or landowner. Alternatively you can visit, click here: https://www.ceh.ac.uk/our-science/projects/bloomin-algae

    WHAT IS BLUE-GREEN ALGAE?

    Blue-green algae are natural inhabitants of many inland waters, estuaries and the sea. Although referred to as algae they are, in fact, a type of bacteria (known as cyanobacteria) with the ability to use the sun’s energy to make food in the same way that many plants do. They may be found in suspension, attached to rocks and other surfaces at the bottom of shallow waterbodies and along the edges of lakes and rivers. The term blue-green algae includes a number of different species.

    All species of blue-green algae need nutrients – nitrates and phosphates – to grow. If the water is enriched with nutrients and there is calm, sunny and warm weather conditions, then the growth may become excessive resulting in algal blooms.

    These algal blooms cause the water to appear discoloured green, blue-green or greenish-brown and some species can produce a musty odour. When the blooms die, they break down, using up oxygen in the water and cause problems for other aquatic life, such as fish. In calm, warm weather some bloom-forming species will rise to the water surface and form a scum which may again be coloured.

    For reasons not fully understood, some bloom and scum-forming blue-green algae are capable of producing toxins. Although many blue-green algae blooms are not toxic, some produce nerve or liver toxins and it is therefore safest to assume toxins could be present

    In their most dangerous form, both in quantity and species, blooms have caused death in cows, sheep and dogs drinking significant concentrations at the water’s edge.

    WHO IS AT RISK AND WHAT ARE THE SYMPTOMS?

    Human health risk from exposure to blue-green algae toxins can arise through swallowing or inhaling water containing the algae and through prolonged direct contact with exposed parts of the body including the skin, and sensitive areas such as ears, eyes, mouth and throat.

    Different groups of water users are at different levels of risk, depending on the amount of time they are likely to spend in/close to the affected water. Participants in descending order of likely risk are as follows:

    Swimmers, paddlers, children playing at the water’s edge, dogs, other animals including some farm animals, fishermen using the bank and water’s edge.

    Windsurfers whose level of competence puts them at risk in the prevailing wind conditions of becoming immersed in or blowing into areas of algal scum.

    Dinghy sailors, catamaran sailors, canoeists and windsurfers competent for the prevailing conditions.

    Other boat users and fishermen fishing from a boat or pontoon.

    Essentially the more likely you are to come into direct contact with the algal scum, the greater the risk of effects of exposure. Symptoms of those affected could be easily confused with a range of other illnesses so it is important to be aware of the risk of blue-green algae as a contributory factor.

    Swallowing and/or inhalation can result in mouth and nose ulcers, blistering of the lips, abdominal pain, nausea, vomiting, diarrhoea, muscular pains, sore throat, dry cough, headaches, hay fever symptoms, dizziness and fatigue.

    For further information, please visit The Department of Agriculture, Environment and Rural Affairs.

    MIL OSI United Kingdom

  • MIL-OSI: Planisware: Monthly information relating to the total number of shares and voting rights making-up the share capital – June 2025

    Source: GlobeNewswire (MIL-OSI)

    Monthly information relating to the total number of shares and voting rights making-up the share capital

    Information mensuelle relative au nombre total d’actions et de droits de vote composant le capital social

    Article L. 233-8 II of the French Commercial code and article 223-16
    of the AMF General Regulation

    Article L. 233-8-II du Code de commerce et article 223-16 du Règlement général de l’AMF

    Name and address of the Company:         Planisware SA
    Dénomination sociale de l’émetteur :        200 avenue de Paris
    92320 Châtillon
    France
    (ISIN code : FR001400PFU4)

    Date Total number
    of shares
    Nombre total d’actions composant le capital
    Number of theorical
    voting rights
    Nombre de droits
    de vote théoriques
    Number of effective
    voting rights*
    Nombre de droits
    de vote effectifs*
    30/06/2025 70,238,894 70,238,894 70,238,894

    *Treasury shares excluded / Actions auto-détenues exclues

    Attachment

    The MIL Network

  • MIL-OSI: Planisware: Monthly information relating to the total number of shares and voting rights making-up the share capital – June 2025

    Source: GlobeNewswire (MIL-OSI)

    Monthly information relating to the total number of shares and voting rights making-up the share capital

    Information mensuelle relative au nombre total d’actions et de droits de vote composant le capital social

    Article L. 233-8 II of the French Commercial code and article 223-16
    of the AMF General Regulation

    Article L. 233-8-II du Code de commerce et article 223-16 du Règlement général de l’AMF

    Name and address of the Company:         Planisware SA
    Dénomination sociale de l’émetteur :        200 avenue de Paris
    92320 Châtillon
    France
    (ISIN code : FR001400PFU4)

    Date Total number
    of shares
    Nombre total d’actions composant le capital
    Number of theorical
    voting rights
    Nombre de droits
    de vote théoriques
    Number of effective
    voting rights*
    Nombre de droits
    de vote effectifs*
    30/06/2025 70,238,894 70,238,894 70,238,894

    *Treasury shares excluded / Actions auto-détenues exclues

    Attachment

    The MIL Network

  • MIL-OSI United Kingdom: Investigation into Admiral Sir Ben Key

    Source: United Kingdom – Executive Government & Departments

    Press release

    Investigation into Admiral Sir Ben Key

    Following a full investigation, Admiral Sir Ben Key’s behaviour has been found to have fallen far short of values and standards expected of Service Personnel.

    This has resulted in termination of service and his commission.

    Chief of Defence Staff Admiral Sir Tony Radakin said:

    We expect the highest standards of behaviour from our Service Personnel and our Civil Servants.

    We investigate all allegations of inappropriate behaviour and will take robust action against anyone found to have fallen short of our standards, regardless of their seniority.

    Updates to this page

    Published 2 July 2025

    MIL OSI United Kingdom

  • MIL-OSI United Kingdom: The international community needs to support the Haitian government’s efforts to re-establish security and stability: UK statement at the UN Security Council

    Source: United Kingdom – Government Statements

    Speech

    The international community needs to support the Haitian government’s efforts to re-establish security and stability: UK statement at the UN Security Council

    Statement by Fergus Eckersley, UK Minister Counsellor, at the Security Council meeting on Haiti.

    Mr President, the UK condemns, without reservation, the violence that continues to undermine efforts to restore democratic rule in Haiti. 

    Coordinated gang attacks on civilian communities, public buildings and the security services continue to destabilise the Haitian state. 

    The gangs’ use of sexual and gender-based violence as a tool to control the population is abhorrent.

    We stand with the survivors, and we fully support efforts by BINUH and OHCHR to strengthen law enforcement efforts to bring the perpetrators to justice.

    The international community, including this Council, need to support the Haitian government’s efforts to re-establish security and stability. 

    We thank the pen holders for their efforts, and we stand ready to renew the mandate of the Special Political Mission to Haiti. 

    It is clear that more is needed, and the Haitian security forces and the Multinational Security Support mission should be adequately supported in order to stabilise the security situation.

    The UK pays tribute to Kenya for its continued leadership of the MSS mission in support of the Haitian Police. 

    It is important now for this Council to agree a process to consider the Secretary-General’s recommendations to deliver enhanced UN security support to Haiti, as a matter of urgency. 

    This action must be matched by Haitian efforts to advance the restoration of democratic rule.

    We note the recent publication of decrees to facilitate constitutional reform and the establishment of an electoral framework. 

    This is a positive step, but more action is needed to lay the groundwork for inclusive and credible elections. 

    We recognise the complex security environment and the considerable pressures facing the Transitional Presidential Council, and we encourage Haitian authorities to continue this work, while prioritising security and justice efforts to stabilise the country.

    The UK firmly rejects those seeking to undermine such a transition and is committed to maintaining accountability, including through the implementation of sanctions on those who seek to destabilise Haiti.

    Mr President, the people of Haiti deserve stability and a lasting peace.

    Collectively, we must find a way to deliver that.

    Updates to this page

    Published 2 July 2025

    MIL OSI United Kingdom

  • MIL-OSI United Nations: Note to Correspondents: Cyprus

    Source: United Nations secretary general

    Following the informal meeting on Cyprus in a broader format that was held in Geneva on 17-18 March of this year, the Secretary-General will convene on 16 and 17 July, here at UN Headquarters, the Greek Cypriot and Turkish Cypriot leaders as well as representatives of the guarantor powers of Greece, Türkiye and the United Kingdom for another informal meeting on Cyprus.

    The meeting will provide an opportunity to continue the dialogue and exchange views on the progress made since March. 
     

    MIL OSI United Nations News

  • MIL-OSI United Kingdom: Billionaire royals don’t need to be bankrolled by public

    Source: Scottish Greens

    We cannot afford to keep the Royals. It is time to abolish the monarchy.

    The UK cannot afford to keep the Royal family, and it is time they paid their own way like other celebrities do, say the Scottish Greens.
     
    Currently, the King and Queen are visiting Scotland for ‘Royal Week’ where they are hosting a variety of events across parts of the country.

    Over £500 million is taken from the public purse every year to fund the monarchy’s lavish lifestyle.
     
    Meanwhile, the UK Government is attacking disability benefits like Personal Independence Payment (PIP), and refuses to end the cruel two-child benefit cap; a simple action that would lift almost half a million children out of poverty overnight.
     
    Polling shows that 57% of Scots want to abolish the outdated, undemocratic and unaffordable monarchy. If the UK were to do so, it would see a boost to budgets that could be put towards building a fairer, better society for everyone.
     
    Scottish Greens MSP Maggie Chapman says:

    “It is time that we treat the Royal family as celebrities and stop publicly funding them. The monarchy is an outdated and increasingly unpopular institution, with many people now calling for it to be abolished in favour of becoming a republic.
     
    “For too long, the billionaire royals have been bankrolled while providing very little back to the country other than some waving from balconies and state visits. If they were to stop being funded by the public purse, they would still survive on their own wealthy investments and celebrity appearances like other super-rich figures in the public eye do.
     
    “This UK Government is quick to blame disabled and poor people for needing financial support, yet here is one of the richest families in the country receiving public funds on a level like nobody else does year after year without question.
     
    “Keir Starmer is telling the country that his government must make tough decisions and to expect more cuts along the way, yet the cost of the royal family is now over half a billion pounds per year, and nobody blinks. Half a billion pounds that could be invested into the areas Labour intend to cut.
     
    “As Scottish Greens, we recognise how desperately we need Scottish Independence to break away from this being the norm. We cannot afford to wait any longer for the full powers of devolution. It is time to become a self-governing country so that we can build a fairer, better, more responsible and more affordable democratic society for everyone.”

    MIL OSI United Kingdom

  • MIL-OSI Security: Met release footage of man wanted in connection with a sexual assault

    Source: United Kingdom London Metropolitan Police

    Detectives have released CCTV footage of a man they need to trace following a sexual assault in May.

    A woman in her 20s reported that a man sexually assaulted her in Park Road, W7 at around 23:50hrs on Wednesday, 21 May. She is currently being supported by specialist officers.

    The man followed the woman off the E1 bus, which takes a route from Ealing Broadway Station to Greenford Broadway.

    As the bus approached Browning Avenue, W7, he sexually assaulted the woman as he alighted. He then followed her down Park Road, W7 where he assaulted her.

    The man was seen on CCTV running north on Park Road following the incident, towards Browning Avenue and the E1 bus stop.

    He is described as Black, in his late 20s or early 30s, and approximately 5ft 11in tall, with a slim build. He has dark, curly hair and was captured on CCTV wearing a black jacket and navy blue, Nike t-shirt.

    Detective Constable Teresa Moore, leading the Met’s investigation, said: “Women and girls should be safe to travel on public transport – and walk the streets of London – without being attacked.

    “This incident highlights the opportunistic behaviour of the offender so it is really important we locate him as soon as possible.”

    If you have any relevant information to share – particularly if you were on the E1 bus on Wednesday, 21 May between 23:45hrs and 23:58hrs – please contact us on 101 immediately and quote 697/21MAY.

    MIL Security OSI

  • MIL-OSI Security: Eight arrests for conspiracy to destroy ULEZ cameras

    Source: United Kingdom London Metropolitan Police

    Eight people have been arrested in a coordinated Met Police operation targeting those conspiring to destroy ULEZ cameras.

    In the early hours of Wednesday, 2 July officers executed warrants at addresses in London, Windsor and on the Isle of Sheppey.

    The London arrests took place in Uxbridge, Ickenham, Northwood, Sutton and Eltham.

    Six men and two women were arrested on suspicion of conspiracy to commit criminal damage.

    One of the men is also alleged to have been involved in threatening and harassing the team sent to repair a damaged camera.

    Those arrested remain in custody. Searches are ongoing at their addresses but officers have already recovered items related to the alleged offending.

    Superintendent Paul Thomas, of the Met’s Roads and Transport Policing Command, said: “There is a big difference between lawful protest and plotting to destroy or seriously damage property.

    “Some may think of this sort of behaviour as a victimless crime, but when cameras are damaged or destroyed it creates dangerous hazards, risking collisions on the road in addition to disruption for motorists and residents.

    “We take these offences very seriously and officers will continue working closely with Transport for London and other partners to identify and build a case against those responsible.

    “Today’s arrests are a significant development in what has been a long and complex investigation that is not yet over.

    “I would appeal to anyone who has information about plans to target ULEZ cameras to come forward.”

    If you have information, please call the police on 101, or the independent charity, Crimestoppers, on 0800 555 111.

    MIL Security OSI

  • MIL-OSI: Crypto & Bitcoin Casinos: Reddit Community Reveals The Safe Crypto Casinos in 2025

    Source: GlobeNewswire (MIL-OSI)

    New York City, NY, July 02, 2025 (GLOBE NEWSWIRE) —  All iGaming’s explosive new report dives into the red-hot rise of crypto casinos, flipping the iGaming world upside down! Fueled by blockchain and powered by cryptocurrencies like Bitcoin, Ethereum, and Tether, top crypto casinos deliver lightning-fast transactions, privacy, and game-changing features like provably fair gaming and immersive virtual reality.

    Get the inside scoop on the trends supercharging the best Bitcoin casinos, see how they stack up against traditional casinos, and learn how to play responsibly. Our report breaks down market shifts, predicts the future of crypto gambling, and guides you to the ultimate crypto casinos for a safe, pulse-pounding experience in 2025!

    CHECK OUT TOP CRYPTO CASINO – EXCLUSIVE RESEARCH INSIGHTS AWAIT<<

    Trends in the Crypto Casino Market

    All iGaming’s meticulous research highlights the best crypto casinos as a transformative force in the iGaming industry, driven by technological innovation and evolving player preferences. Their analysis, based on 3,000 platform evaluations and 60,000 player interactions, identifies six key trends reshaping the market.

    Key Trends Identified by All iGaming

    1. Lightning-Fast Transactions: All iGaming’s data shows that crypto casinos process deposits and withdrawals in under 10 minutes, with top platforms achieving sub-minute transaction times. This is a stark contrast to traditional casinos, which often require 24–72 hours for withdrawals due to banking intermediaries. Blockchain’s decentralized ledger eliminates delays, ensuring players can access funds swiftly.
    2. Expansive Game Libraries: All iGaming reports that leading top crypto casinos offer over 9,000 game titles, including slots, table games (e.g., blackjack, roulette), live dealer options, and provably fair games unique to blockchain platforms. Providers like Pragmatic Play, Evolution Gaming, and NetEnt contribute to diverse catalogs, surpassing traditional casinos’ typical 3,000–5,000 titles.
    3. Enhanced Privacy and No-KYC Options: All iGaming’s community polls reveal that 68% of players value privacy, driving demand for no-KYC (Know Your Customer) or low-KYC platforms. These casinos use blockchain to ensure secure, anonymous transactions, appealing to players in regions with restrictive gambling laws.
    4. AI and VR Integration: All iGaming’s platform assessments note that artificial intelligence (AI) personalizes game recommendations and bonus offers based on player behavior, while VR creates immersive environments, such as virtual poker rooms where players interact via avatars, replicating land-based casino dynamics.
    5. Stablecoin and NFT Integration: All iGaming highlights the adoption of stablecoins like USDT and USDC, which mitigate cryptocurrency volatility, making gambling more accessible. Additionally, some platforms integrate non-fungible tokens (NFTs) and play-to-earn models, allowing players to earn digital assets, blending gaming with investment opportunities.
    6. Decentralized Platforms and Smart Contracts: All iGaming’s research confirms that Web3 casinos, built on blockchains like Ethereum and Solana, use smart contracts for automated, transparent payouts. These contracts ensure fairness by allowing players to verify game outcomes, a feature absent in traditional casinos.

    These trends, identified by All iGaming, position crypto casinos as leaders in innovation, offering unparalleled speed, variety, and transparency.

    CLOSE LOOK ON TOP-PERFORMING CRYPTO CASINO<<

    All iGaming’s Research Methodology

    All iGaming’s authoritative insights stem from a robust, multi-faceted research methodology outlined in their June 2025 report. Their approach ensures a comprehensive understanding of the crypto casino landscape:

    • Player Engagements: All iGaming analyzed 60,000+ player interactions across global forums, social media, and iGaming communities to capture preferences, pain points, and satisfaction metrics. This qualitative data provides insights into why players prefer crypto casinos.
    • Platform Assessments: All iGaming evaluated 3,000+ crypto casino platforms, focusing on game diversity, transaction speeds, security protocols, user interfaces, and reward structures. Their assessments include both established and emerging platforms.
    • Community Polls: All iGaming conducted 1,000+ surveys targeting players in 50 markets, gathering quantitative data on adoption rates, platform reliability, and player priorities like privacy and speed.
    • Market Analysis: All iGaming’s studies span 50 global markets, including North America, Europe, Asia, and emerging regions like Latin America, ensuring a holistic view of regional trends and regulatory impacts.

    This methodology, combining qualitative and quantitative data, underpins All iGaming’s finding that best crypto casinos exhibit a 350% higher growth rate than traditional online casinos, driven by superior technology and player-centric features.

    >>ACCESS ALL IGAMING’S EXCLUSIVE CRYPTO CASINO DATA

    Performance Analysis: Crypto Casinos vs. Traditional Casinos

    All iGaming’s research provides a detailed comparison of the best crypto casinos and traditional online casinos across key performance metrics, highlighting the former’s dominance.

    Transaction Speed

    All iGaming’s platform assessments reveal that crypto casinos process transactions 15 times faster than their traditional counterparts. Deposits are often instant, and withdrawals take 2–8 minutes, compared to 24–72 hours for traditional casinos reliant on banking systems. Blockchain’s decentralized infrastructure eliminates intermediaries, ensuring efficiency.

    Game Variety

    All iGaming’s data shows the best crypto casinos offer expansive catalogs, with top platforms boasting over 8,000 titles, including 500+ live dealer games and provably fair options. Traditional casinos, constrained by legacy systems, typically provide 3,000–5,000 titles, limiting player choice.

    Player Satisfaction

    All iGaming’s player engagement studies report a 94% satisfaction rate for crypto casino users, attributed to dynamic rewards (e.g., up to 600 free spins or 5 BTC welcome bonuses), provably fair games, and robust security measures like SSL encryption and two-factor authentication (2FA). Traditional casinos, while reliable, score lower at 82% due to slower innovation.

    Growth Metrics

    All iGaming projects that crypto casinos will capture 47% of the $153.57 billion global online gambling market by 2027, driven by a 350% higher growth rate. The overall market, valued at $78.66 billion in 2024, is expected to grow at a CAGR of 11.8%, with best crypto casinos as a primary driver.

    Security and Transparency

    All iGaming’s research confirms that blockchain’s decentralized ledger ensures tamper-proof transactions, giving top crypto casinos an edge over traditional platforms, which face risks like fraud and data breaches due to centralized systems.

    >>GET THE FULL PERFORMANCE BREAKDOWN – ACCESS ALL IGAMING’S 2025 REPORT<<

    Responsible Gambling Practices

    All iGaming’s research emphasizes the importance of responsible gambling, particularly in the high-stakes world of best crypto casinos. Their studies highlight practices that allow players to engage with the iGaming ecosystem safely without active wagering:

    • Research and Education: All iGaming’s resources, including guides and platform reviews, educate players on casino features, licensing, and risks. These tools enable informed decision-making without financial commitment.
    • Demo Modes: All iGaming notes that 85% of top crypto casinos offer free-play versions of games like slots, blackjack, and roulette, allowing players to explore mechanics and strategies risk-free.
    • Setting Limits: All iGaming’s platform evaluations highlight tools like deposit limits, session timers, and loss caps, which players can set proactively to manage potential spending.
    • Accessing Support: All iGaming recommends platforms that link to organizations like Gamblers Anonymous or BeGambleAware, enabling players to seek preemptive support for maintaining healthy habits.
    • Regulatory Awareness: All iGaming advises players to verify local gambling laws, as regulations vary. For example, jurisdictions like Malta permit offshore crypto casinos, while others, like the UK, impose stricter controls. VPNs may enable access in restricted regions, but compliance is critical.

    These practices, endorsed by All iGaming, ensure players can explore the best crypto casinos safely and responsibly.

    Market Dynamics According to All-iGaming

    All iGaming’s market analysis reveals the forces driving the iGaming industry’s evolution, with crypto casinos at the forefront:

    • Technological Advancements: All iGaming’s research highlights blockchain, AI, and VR as transformative technologies. Smart contracts ensure fair play, AI personalizes experiences (e.g., tailored bonuses), and VR creates immersive environments, boosting engagement.
    • Regulatory Landscape: All iGaming notes that crypto-friendly jurisdictions like Malta, Curaçao, and Panama offer flexible licensing, fostering growth. Conversely, stricter regulations in the UK and parts of the US create challenges, though legalization in states like New Jersey generates significant revenue.
    • Consumer Behavior: All iGaming’s polls show that 62% of US iGamers aged 18–34 prefer crypto casinos for their privacy, high betting limits, and innovative features. High rollers and privacy-conscious players are key demographics.
    • Economic Factors: All iGaming links rising disposable incomes, global tourism, and the post-COVID shift to online platforms with increased crypto casino adoption. The pandemic accelerated the closure of physical casinos, boosting digital alternatives.

    Future Outlook By All-iGaming Experts

    All iGaming’s forward-looking research predicts a transformative future for the best crypto casinos, with key developments by 2030:

    • Market Expansion: All iGaming forecasts a $55.3 billion crypto casino market by 2032, capturing 47% of the global online gambling market by 2027, driven by a 27.29% CAGR.
    • Technological Integration: All iGaming expects AI-driven personalization, VR gaming, and blockchain-based loyalty programs to become industry standards, enhancing player retention and engagement.
    • Regulatory Evolution: All iGaming anticipates that as cryptocurrencies gain mainstream acceptance, regulators will develop frameworks balancing innovation and consumer protection. Malta and Curaçao will remain crypto-friendly hubs.
    • Sustainability: All iGaming highlights growing concerns about blockchain’s energy consumption, predicting a shift toward eco-friendly solutions like proof-of-stake protocols to align with industry sustainability trends.
    • Web3 and DeFi: All iGaming predicts that decentralized finance (DeFi) and NFT integration will introduce new revenue streams, such as staking and yield farming, merging gaming with financial opportunities.

    All iGaming’s insights suggest best crypto casinos will dominate, compelling traditional operators to adopt blockchain technologies to stay competitive.

    CHECK OUT THE BEST CRYPTO CASINO WITH GAME-CHANGING PAYMENT OPTIONS!>>

    Selecting Top Crypto Casinos

    All iGaming’s expert recommendations provide a detailed framework for choosing reputable crypto casinos, ensuring safety, fairness, and enjoyment:

    1. Licensing and Regulation: All iGaming advises selecting platforms licensed by reputable jurisdictions like the Malta Gaming Authority, Curaçao eGaming, or Panama. Licensed casinos adhere to strict standards, ensuring fair play and fraud protection.
    2. Security Measures: All iGaming recommends platforms with SSL encryption, 2FA, and regular audits. Blockchain-based casinos should use decentralized ledgers for transparent transactions, as verified in All iGaming’s assessments.
    3. Game Variety: All iGaming suggests choosing casinos with 8,000+ titles, including slots, live dealer games, and provably fair options, from providers like Evolution Gaming, Pragmatic Play, and NetEnt.
    4. Transaction Speed and Fees: All iGaming highlights platforms with sub-10-minute withdrawals and zero-fee crypto transactions. Support for stablecoins like USDT minimizes volatility risks.
    5. Bonuses and Rewards: All iGaming recommends casinos offering transparent bonuses, such as 600 free spins or 5 BTC welcome packages, with clear, reasonable wagering requirements (e.g., 30x or lower).
    6. User Experience: All iGaming prioritizes platforms with intuitive interfaces, mobile compatibility (iOS and Android apps), and 24/7 customer support via live chat or email. AI-driven features and VR options enhance engagement.
    7. Responsible Gambling Tools: All iGaming endorses casinos with deposit limits, session timers, self-exclusion options, and links to support organizations like Gamblers Anonymous.
    8. Community Feedback: All iGaming advises reviewing player feedback on forums and their platform ratings to ensure reliability and satisfaction.

    By following All iGaming’s criteria, players can select the best crypto casinos that align with their preferences and local regulations.

    Conclusion

     All iGaming’s findings highlight responsible gambling practices, such as demo modes and deposit limits, ensuring safe exploration. Market dynamics, including technological advancements and regulatory shifts, drive the projected $55.3 billion market by 2032. By adhering to All iGaming’s guidelines—prioritizing licensing, security, game variety, and responsible tools—players can confidently navigate the crypto casino landscape, ensuring a rewarding, secure, and responsible gaming experience.

    Disclaimer: This article is for educational purposes. Online gambling carries financial risks and may be restricted in some regions. Verify local laws and gamble responsibly.

    Email:support@alligaming.com

    Attachment

    The MIL Network

  • MIL-OSI: Crypto & Bitcoin Casinos: Reddit Community Reveals The Safe Crypto Casinos in 2025

    Source: GlobeNewswire (MIL-OSI)

    New York City, NY, July 02, 2025 (GLOBE NEWSWIRE) —  All iGaming’s explosive new report dives into the red-hot rise of crypto casinos, flipping the iGaming world upside down! Fueled by blockchain and powered by cryptocurrencies like Bitcoin, Ethereum, and Tether, top crypto casinos deliver lightning-fast transactions, privacy, and game-changing features like provably fair gaming and immersive virtual reality.

    Get the inside scoop on the trends supercharging the best Bitcoin casinos, see how they stack up against traditional casinos, and learn how to play responsibly. Our report breaks down market shifts, predicts the future of crypto gambling, and guides you to the ultimate crypto casinos for a safe, pulse-pounding experience in 2025!

    CHECK OUT TOP CRYPTO CASINO – EXCLUSIVE RESEARCH INSIGHTS AWAIT<<

    Trends in the Crypto Casino Market

    All iGaming’s meticulous research highlights the best crypto casinos as a transformative force in the iGaming industry, driven by technological innovation and evolving player preferences. Their analysis, based on 3,000 platform evaluations and 60,000 player interactions, identifies six key trends reshaping the market.

    Key Trends Identified by All iGaming

    1. Lightning-Fast Transactions: All iGaming’s data shows that crypto casinos process deposits and withdrawals in under 10 minutes, with top platforms achieving sub-minute transaction times. This is a stark contrast to traditional casinos, which often require 24–72 hours for withdrawals due to banking intermediaries. Blockchain’s decentralized ledger eliminates delays, ensuring players can access funds swiftly.
    2. Expansive Game Libraries: All iGaming reports that leading top crypto casinos offer over 9,000 game titles, including slots, table games (e.g., blackjack, roulette), live dealer options, and provably fair games unique to blockchain platforms. Providers like Pragmatic Play, Evolution Gaming, and NetEnt contribute to diverse catalogs, surpassing traditional casinos’ typical 3,000–5,000 titles.
    3. Enhanced Privacy and No-KYC Options: All iGaming’s community polls reveal that 68% of players value privacy, driving demand for no-KYC (Know Your Customer) or low-KYC platforms. These casinos use blockchain to ensure secure, anonymous transactions, appealing to players in regions with restrictive gambling laws.
    4. AI and VR Integration: All iGaming’s platform assessments note that artificial intelligence (AI) personalizes game recommendations and bonus offers based on player behavior, while VR creates immersive environments, such as virtual poker rooms where players interact via avatars, replicating land-based casino dynamics.
    5. Stablecoin and NFT Integration: All iGaming highlights the adoption of stablecoins like USDT and USDC, which mitigate cryptocurrency volatility, making gambling more accessible. Additionally, some platforms integrate non-fungible tokens (NFTs) and play-to-earn models, allowing players to earn digital assets, blending gaming with investment opportunities.
    6. Decentralized Platforms and Smart Contracts: All iGaming’s research confirms that Web3 casinos, built on blockchains like Ethereum and Solana, use smart contracts for automated, transparent payouts. These contracts ensure fairness by allowing players to verify game outcomes, a feature absent in traditional casinos.

    These trends, identified by All iGaming, position crypto casinos as leaders in innovation, offering unparalleled speed, variety, and transparency.

    CLOSE LOOK ON TOP-PERFORMING CRYPTO CASINO<<

    All iGaming’s Research Methodology

    All iGaming’s authoritative insights stem from a robust, multi-faceted research methodology outlined in their June 2025 report. Their approach ensures a comprehensive understanding of the crypto casino landscape:

    • Player Engagements: All iGaming analyzed 60,000+ player interactions across global forums, social media, and iGaming communities to capture preferences, pain points, and satisfaction metrics. This qualitative data provides insights into why players prefer crypto casinos.
    • Platform Assessments: All iGaming evaluated 3,000+ crypto casino platforms, focusing on game diversity, transaction speeds, security protocols, user interfaces, and reward structures. Their assessments include both established and emerging platforms.
    • Community Polls: All iGaming conducted 1,000+ surveys targeting players in 50 markets, gathering quantitative data on adoption rates, platform reliability, and player priorities like privacy and speed.
    • Market Analysis: All iGaming’s studies span 50 global markets, including North America, Europe, Asia, and emerging regions like Latin America, ensuring a holistic view of regional trends and regulatory impacts.

    This methodology, combining qualitative and quantitative data, underpins All iGaming’s finding that best crypto casinos exhibit a 350% higher growth rate than traditional online casinos, driven by superior technology and player-centric features.

    >>ACCESS ALL IGAMING’S EXCLUSIVE CRYPTO CASINO DATA

    Performance Analysis: Crypto Casinos vs. Traditional Casinos

    All iGaming’s research provides a detailed comparison of the best crypto casinos and traditional online casinos across key performance metrics, highlighting the former’s dominance.

    Transaction Speed

    All iGaming’s platform assessments reveal that crypto casinos process transactions 15 times faster than their traditional counterparts. Deposits are often instant, and withdrawals take 2–8 minutes, compared to 24–72 hours for traditional casinos reliant on banking systems. Blockchain’s decentralized infrastructure eliminates intermediaries, ensuring efficiency.

    Game Variety

    All iGaming’s data shows the best crypto casinos offer expansive catalogs, with top platforms boasting over 8,000 titles, including 500+ live dealer games and provably fair options. Traditional casinos, constrained by legacy systems, typically provide 3,000–5,000 titles, limiting player choice.

    Player Satisfaction

    All iGaming’s player engagement studies report a 94% satisfaction rate for crypto casino users, attributed to dynamic rewards (e.g., up to 600 free spins or 5 BTC welcome bonuses), provably fair games, and robust security measures like SSL encryption and two-factor authentication (2FA). Traditional casinos, while reliable, score lower at 82% due to slower innovation.

    Growth Metrics

    All iGaming projects that crypto casinos will capture 47% of the $153.57 billion global online gambling market by 2027, driven by a 350% higher growth rate. The overall market, valued at $78.66 billion in 2024, is expected to grow at a CAGR of 11.8%, with best crypto casinos as a primary driver.

    Security and Transparency

    All iGaming’s research confirms that blockchain’s decentralized ledger ensures tamper-proof transactions, giving top crypto casinos an edge over traditional platforms, which face risks like fraud and data breaches due to centralized systems.

    >>GET THE FULL PERFORMANCE BREAKDOWN – ACCESS ALL IGAMING’S 2025 REPORT<<

    Responsible Gambling Practices

    All iGaming’s research emphasizes the importance of responsible gambling, particularly in the high-stakes world of best crypto casinos. Their studies highlight practices that allow players to engage with the iGaming ecosystem safely without active wagering:

    • Research and Education: All iGaming’s resources, including guides and platform reviews, educate players on casino features, licensing, and risks. These tools enable informed decision-making without financial commitment.
    • Demo Modes: All iGaming notes that 85% of top crypto casinos offer free-play versions of games like slots, blackjack, and roulette, allowing players to explore mechanics and strategies risk-free.
    • Setting Limits: All iGaming’s platform evaluations highlight tools like deposit limits, session timers, and loss caps, which players can set proactively to manage potential spending.
    • Accessing Support: All iGaming recommends platforms that link to organizations like Gamblers Anonymous or BeGambleAware, enabling players to seek preemptive support for maintaining healthy habits.
    • Regulatory Awareness: All iGaming advises players to verify local gambling laws, as regulations vary. For example, jurisdictions like Malta permit offshore crypto casinos, while others, like the UK, impose stricter controls. VPNs may enable access in restricted regions, but compliance is critical.

    These practices, endorsed by All iGaming, ensure players can explore the best crypto casinos safely and responsibly.

    Market Dynamics According to All-iGaming

    All iGaming’s market analysis reveals the forces driving the iGaming industry’s evolution, with crypto casinos at the forefront:

    • Technological Advancements: All iGaming’s research highlights blockchain, AI, and VR as transformative technologies. Smart contracts ensure fair play, AI personalizes experiences (e.g., tailored bonuses), and VR creates immersive environments, boosting engagement.
    • Regulatory Landscape: All iGaming notes that crypto-friendly jurisdictions like Malta, Curaçao, and Panama offer flexible licensing, fostering growth. Conversely, stricter regulations in the UK and parts of the US create challenges, though legalization in states like New Jersey generates significant revenue.
    • Consumer Behavior: All iGaming’s polls show that 62% of US iGamers aged 18–34 prefer crypto casinos for their privacy, high betting limits, and innovative features. High rollers and privacy-conscious players are key demographics.
    • Economic Factors: All iGaming links rising disposable incomes, global tourism, and the post-COVID shift to online platforms with increased crypto casino adoption. The pandemic accelerated the closure of physical casinos, boosting digital alternatives.

    Future Outlook By All-iGaming Experts

    All iGaming’s forward-looking research predicts a transformative future for the best crypto casinos, with key developments by 2030:

    • Market Expansion: All iGaming forecasts a $55.3 billion crypto casino market by 2032, capturing 47% of the global online gambling market by 2027, driven by a 27.29% CAGR.
    • Technological Integration: All iGaming expects AI-driven personalization, VR gaming, and blockchain-based loyalty programs to become industry standards, enhancing player retention and engagement.
    • Regulatory Evolution: All iGaming anticipates that as cryptocurrencies gain mainstream acceptance, regulators will develop frameworks balancing innovation and consumer protection. Malta and Curaçao will remain crypto-friendly hubs.
    • Sustainability: All iGaming highlights growing concerns about blockchain’s energy consumption, predicting a shift toward eco-friendly solutions like proof-of-stake protocols to align with industry sustainability trends.
    • Web3 and DeFi: All iGaming predicts that decentralized finance (DeFi) and NFT integration will introduce new revenue streams, such as staking and yield farming, merging gaming with financial opportunities.

    All iGaming’s insights suggest best crypto casinos will dominate, compelling traditional operators to adopt blockchain technologies to stay competitive.

    CHECK OUT THE BEST CRYPTO CASINO WITH GAME-CHANGING PAYMENT OPTIONS!>>

    Selecting Top Crypto Casinos

    All iGaming’s expert recommendations provide a detailed framework for choosing reputable crypto casinos, ensuring safety, fairness, and enjoyment:

    1. Licensing and Regulation: All iGaming advises selecting platforms licensed by reputable jurisdictions like the Malta Gaming Authority, Curaçao eGaming, or Panama. Licensed casinos adhere to strict standards, ensuring fair play and fraud protection.
    2. Security Measures: All iGaming recommends platforms with SSL encryption, 2FA, and regular audits. Blockchain-based casinos should use decentralized ledgers for transparent transactions, as verified in All iGaming’s assessments.
    3. Game Variety: All iGaming suggests choosing casinos with 8,000+ titles, including slots, live dealer games, and provably fair options, from providers like Evolution Gaming, Pragmatic Play, and NetEnt.
    4. Transaction Speed and Fees: All iGaming highlights platforms with sub-10-minute withdrawals and zero-fee crypto transactions. Support for stablecoins like USDT minimizes volatility risks.
    5. Bonuses and Rewards: All iGaming recommends casinos offering transparent bonuses, such as 600 free spins or 5 BTC welcome packages, with clear, reasonable wagering requirements (e.g., 30x or lower).
    6. User Experience: All iGaming prioritizes platforms with intuitive interfaces, mobile compatibility (iOS and Android apps), and 24/7 customer support via live chat or email. AI-driven features and VR options enhance engagement.
    7. Responsible Gambling Tools: All iGaming endorses casinos with deposit limits, session timers, self-exclusion options, and links to support organizations like Gamblers Anonymous.
    8. Community Feedback: All iGaming advises reviewing player feedback on forums and their platform ratings to ensure reliability and satisfaction.

    By following All iGaming’s criteria, players can select the best crypto casinos that align with their preferences and local regulations.

    Conclusion

     All iGaming’s findings highlight responsible gambling practices, such as demo modes and deposit limits, ensuring safe exploration. Market dynamics, including technological advancements and regulatory shifts, drive the projected $55.3 billion market by 2032. By adhering to All iGaming’s guidelines—prioritizing licensing, security, game variety, and responsible tools—players can confidently navigate the crypto casino landscape, ensuring a rewarding, secure, and responsible gaming experience.

    Disclaimer: This article is for educational purposes. Online gambling carries financial risks and may be restricted in some regions. Verify local laws and gamble responsibly.

    Email:support@alligaming.com

    Attachment

    The MIL Network

  • MIL-OSI United Kingdom: Single-use vapes ban in effect from 1 August02 July 2025 The Minister for Infrastructure has signed a Commencement Order which means it will be illegal to import and supply single-use vapes in Jersey from Friday 1 August 2025. Retailers have until 1 February… Read more

    Source: Channel Islands – Jersey

    02 July 2025

    The Minister for Infrastructure has signed a Commencement Order which means it will be illegal to import and supply single-use vapes in Jersey from Friday 1 August 2025.

    Retailers have until 1 February 2026 to sell existing stocks of single-use vapes. This only applies to single-use vapes that were imported prior to the law coming into force and retailers may be asked to provide evidence of this. After the six-month sell-through period, it will be illegal for retailers to sell any single-use vapes. 

    If an individual bought one or more single-use vapes before the ban, they are still permitted to use them. 

    The ban follows amendments made to the Single-Use Plastics etc. (Restrictions) (Jersey) Amendment Law 2025 approved by the States Assembly in December 2024. This is because of their damaging impact on the environment. The change aims to help tackle the climate emergency and reduce Jersey’s waste. 

    A vape is considered single-use if it meets one or more of the following: 

    • It cannot be reused 
    • It cannot be refilled 
    • Its battery cannot be recharged 
    • Its coil cannot be replaced.

    Vapes that are permitted must be designed to allow all of the above functions. 

    England, Scotland, Wales and Northern Ireland banned the sale and supply of single use vapes from 1 June 2025 with no selling through period. 

    For more information, visit: gov.je/singleuseplastics.​​

    MIL OSI United Kingdom

  • MIL-OSI United Kingdom: Summer programme of roadworks planned for city

    Source: City of Leicester

    A SERIES of repairs is due to take place on roads across Leicester during the school summer holidays.

    The city council is carrying out the programme of resurfacing work during the school break when there is less traffic on the city’s roads.

    It will involve some temporary road closures and well signposted local diversions while the repairs are carried out.

    Work takes place on Stoughton Drive, between Evington Drive and the Gartree roundabout, from Saturday 12 July, for eight days. The route will be closed in both directions during the work, which is costing around £240,000 and will see 6,750 square metres of road resurfaced.

    On Avenue Road Extension, in Clarendon Park, there will be work between its junctions with Welford Road and Queens Road, from Saturday 19 July, for up to seven days.

    Work will then begin on part of London Road, between its junctions with Mayfield Road and Evington Road, from Saturday 26 July for six days.

    The Portwey and Tailby Avenue, between Hastings Road and Uppingham, Road will be resurfaced from Saturday 2 August, with work expected to take place over six days.

    Roadworks are also planned for parts of Wicklow Drive, King Richards Road, Vulcan Road and Arran Road during August, with all schemes expected to be complete before the schools return on Tuesday 26 August.

    In total, the planned summer roadworks programme will cost just over £1 million and will see over 26,000 square metres of road resurfaced.

    Martin Fletcher, Leicester City Council director of city highways, said: “With the volume of traffic using the city’s roads, repairs and resurfacing work are necessary to keep the road network in good condition.

    “Unfortunately, these works mean temporary road closures and disruption to some drivers, but that is unavoidable.

    “We do try to carry out resurfacing and more disruptive roadworks during the school holidays when traffic is considerably reduced and will do all that we can to ensure that work is completed quickly and that roads can reopen on time.”

    The planned summer roadworks are part of the city council’s annual highway capital maintenance programme that will see over £6 million invested in maintaining and improving the city’s highway infrastructure this year.

    MIL OSI United Kingdom

  • MIL-OSI United Kingdom: King’s Birthday Party 2025: His Majesty’s Ambassador Alyson King’s speech

    Source: United Kingdom – Executive Government & Departments

    Speech

    King’s Birthday Party 2025: His Majesty’s Ambassador Alyson King’s speech

    His Majesty’s Ambassador to the Democratic Republic of Congo Alyson King’s speech on the King’s Birthday Party delivered on 19 June.

    Your Excellency the President of the Republic, represented here by his principal advisor in charge of the College of Environment, Urban Planning and Mobility, HE Ambassador Tosi Mpanu Mpanu,

    Honourable Senators and Members of Parliament,

    Your Excellencies, distinguished members of the national and provincial governments, and their representatives here present,

    Madam SRSG and Head of MONUSCO,

    Excellencies, my fellow Ambassadors and heads of international organisations,

    Dear members of the diplomatic corps and international organisations,

    Distinguished religious and civil authorities, members of political parties,

    Dear partners,

    Eminent representatives of civil society and the world of culture,

    Ladies and Gentlemen,

    Distinguished guests,

    Dear friends,

    All protocol observed

    Boyei malamu na moto nyonso! (Welcome to everyone!)

    Thank you all for coming. Your presence helps to create a special atmosphere as we celebrate the official birthday of King Charles III. It’s also an opportunity to celebrate the links between the UK and the DRC.

    The UK established its first diplomatic mission here in 1902, when a British consulate was built in the then capital, Boma.

    But even though our relationship is 123 years old this year, I think we’re just getting started!

    I’m going to repeat what I said last year:

    We still do not know each other as well as we might. It remains my firm conviction that the more we know and understand each other, the more opportunities we will find to do good things together.

    That’s enough recycling, at least for words!

    The past year has been marked by undeniably negative events, and I’d like to say a few words about them before turning to more encouraging aspects.

    In January, the battle for Goma began when Rwandan troops and the M23 attacked. Many civilians died, as did members of MONUSCO and SAMIDRC. Many people were forced to move – once again – and numerous human rights violations were committed by all the actors on the ground. I was forced to close our office in Goma.

    A few days later, several embassies – both African and Western – and diplomatic residences in Kinshasa were attacked and looted. Perhaps the oldest principle of international public law is “don’t shoot the messenger”. Peaceful demonstration is an essential democratic right and freedom; as diplomats, we are there to understand and convey messages, particularly when the situation is difficult. But this type of violence is unacceptable and counter-productive. It delayed the international response to events in the east of the country rather than encouraging it.

    Today, a record 5 million people live under occupation in the east of the DRC, under the administration of a UN-sanctioned rebel group.

    I want to be very clear.

    The UK Government condemns the actions of all illegal armed groups in eastern DRC, including the M23. The UK Government has expressed its deep concern about the support of the Rwandan Defence Forces (RDF) to the M23 in offensives that violate the territorial integrity of the Democratic Republic of Congo. In response, the UK Government has announced a major reassessment of its policy towards Kigali, including the suspension of the majority of its financial support.

    Security Council Resolution 2773, adopted unanimously by its 15 members, calls for the immediate and unconditional withdrawal of the M23 and the RDF. It has not yet been implemented. We welcome all the efforts currently being made to find a political solution to this situation.

    At a time when the international system based on norms and international law is being called into question, whether in the Middle East, Ukraine, Sudan or the DRC, leadership is required more than ever.

    This leadership must be both courageous and wise, ready to take the necessary difficult measures and brave reforms.

    Against this backdrop, there are many reasons to be optimistic about relations between the UK and the DRC.

    You’ll see many examples of our collaboration in this garden.

    I’m delighted to welcome back some of our Chevening alumni, and even more delighted to announce that we are increasing the number of scholarships available to talented young Congolese leaders to study for a Masters degree, fully funded by the UK, in the UK.

    Much of the UK’s work in the country is targeted at communities in the east. For example, new UK funding will provide clean water and sanitation to around 200,000 displaced people, in partnership with UNICEF and the SAFER consortium.

    On this day, International Day for the Elimination of Sexual Violence in Conflict, I would like to underline the priority that the UK Government gives to supporting survivors of sexual violence and fighting impunity. I reiterate my congratulations to the DRC for being the first state in the world to condemn the crime of forced pregnancy. I hope we can work together to provide global leadership on these vital issues in the years ahead.  

    We congratulate the DRC on its election to the Security Council as of 1 January and look forward to working together on issues crucial to international peace and security.

    In the field of health, our partnerships with UNICEF and the WHO are supporting the government’s response to the ongoing Mpox and cholera epidemics, and helping more than 4.4 million Congolese people. I was delighted to meet some Mpox survivors in Kinshasa recently; one young man thought he would never get out of hospital alive because he was so ill. Looking at him today, you’d never guess, he’s so healthy and cheerful.

    On climate and the environment, the UK co-chairs the Donor College of the Congo Basin Forest Partnership in the Central African Forest Initiative (CAFI). Our new £90 million action programme supports local communities around the Yangambi Biosphere Reserve, improving economic livelihoods while preserving forests and nature.

    And I’m proud that our programme is also building the DRC’s capacity in climate science in collaboration with British universities.

    I would like to salute the work of the Head of State, for his renewed commitment to economic reform. Tangible improvements to the business climate, such as simpler and more predictable procedures and taxation, as well as greater transparency, will attract foreign direct investment and lead to the creation of well-paid jobs.

    British companies have shown their interest in the economic potential of the DRC. For example, British International Investment’s investment alongside DP World in the DRC’s first deep-water container port at Banana will open up new infrastructure and international trade opportunities for the country.

    As a global centre of mining expertise, trade and finance, the UK is particularly well placed to support the DRC’s ambition to develop its mining sector and bring its critical minerals, which are vital to global economies, to all Congolese.

    This evening, I’m delighted that several Congolese companies with links to the UK are here, and in particular several of them have been able to contribute to this fantastic event.

    I would like to thank our generous sponsors: Socimex, Rawbank, Vodacom, G4S, Helios Towers, HJ Hospital, Médecins de Nuit, Diageo, Canalbox, Manga Flore Gardening Services, Centre Médical Diamant and BAM’s Clean, without whom this evening would not have been possible.

    My thanks also go to my team who work tirelessly, not just for this event, but also for their dedication on a daily basis enabling the Embassy to function well and for us make a difference.

    Dear guests,

    Ladies and Gentlemen,

    The Democratic Republic of Congo is an important partner and friend for the United Kingdom. In recent years, the ties of friendship between our two countries have grown stronger. H.E. President Felix Tshisekedi was one of the first heads of state to meet His Majesty King Charles III after his accession to the throne.

    We salute the work of H.E. Mrs Judith Suminwa, the first female Prime Minister of the DRC, and all the members of the Government present here today.

    My country’s wish is to embark on the next phase of this relationship, working in collaboration with the DRC’s leaders, civil society, businesses and health and climate experts.  

    I sincerely hope that we’ll get to know each other better and that we’ll achieve even more great things together.

    Here’s to the next 123 years of friendship!

    Feti malamu (Enjoy the party!)

    Updates to this page

    Published 2 July 2025

    MIL OSI United Kingdom

  • MIL-OSI United Kingdom: Praise for trial showing how technology can transform adult social care across city

    Source: City of Wolverhampton

    The council is working on the trial with others to prove how Technology Enabled Care (TEC) can help improve lives.

    The pilot is led by WM5G on behalf of the West Midlands Combined Authority (WMCA) and funded by the Department for Science, Innovation and Technology (DSIT) under the 5G Innovation Region scheme.

    It is focused on the eligible care and support needs of people aged 65 and over, people with learning disabilities and those with physical disabilities.

    As part of the project technology being used in people’s homes to support care needs includes devices and voice activated wireless technologies such as video care phones, smart speakers, smart doorbells and smart smoke alarms.

    Residents have also been making use of digital pendants helping keep them safe at home and when out and about through location pinpointing, fall detection and direct communication with emergency support.

    Wolverhampton resident Carol, who has vascular dementia, is among the participants, supported by WM5G digital care navigators and her daughter Caroline.

    She said: “This technology is like having a friend. I don’t feel alone, I feel safe, and that has given me a lot of confidence both in and out of the house.”

    Caroline said: “Mum is of a generation where technology is not really their thing at all, but this is easy to use, and the support team have been brilliant talking her through it. It has been very beneficial and reassuring for us.”

    You can watch Carol and her daughter talk more about the TEC trial by watching the video here

    Councillor Paula Brookfield, the City of Wolverhampton Council’s Cabinet Member for Adults, said: “While we are in the early stages of understanding the potential of this technology, it can help make a positive difference providing tailored packages, optimising carer visits and delaying the need for additional care.”

    Councillor Jeszemma Howl, the City of Wolverhampton Council’s Cabinet Member for Governance and Digital, said: “It is lovely to hear how putting technology to use in this way can transform the lives of people like Carol right across our city, empowering independence and improving wellbeing.”

    More than 301 referrals have been made in Wolverhampton alone since the start of the project in September 2024 with over 2,500 pieces of TEC equipment deployed to support independent living.

    Findings from the project will help inform a business case for development of TEC in the future.

    MIL OSI United Kingdom

  • MIL-OSI United Kingdom: Photographer jailed after sexually assaulting two models

    Source: United Kingdom – Executive Government & Departments

    Press release

    Photographer jailed after sexually assaulting two models

    A man who sexually assaulted two men has had his suspended sentence quashed and has been jailed after the Solicitor General intervened  

    Wayne Glover-Stuart [36] from Chiswick, West London, has had his suspended sentence overturned and jailed for three years after the Solicitor General Lucy Rigby KC MP referred his case to the Court of Appeal.  

    The court heard that Glover-Stuart, a former theatre producer, invited two men on separate occasions to an underwear modelling photoshoot.  

    During both incidents, Glover-Stuart touched the victims’ genitals before carrying out sexual assaults.  

    The Solicitor General Lucy Rigby KC MP said:  

    Glover-Stuart’s crimes were appalling. He lured his victims into a vulnerable position abusing their trust before sexually assaulted them for his own gratification. 

    I welcome the Court of Appeal’s decision to increase this offender’s sentence following my intervention.

    Wayne Glover-Stuart was sentenced to two years’ imprisonment, suspended for two years, for sexual assault and causing a person to engage in sexual activity without consent, on 16 April 2025 at the Inner London Crown Court. 

    On 1 July 2025, Glover-Stuart’s suspended sentence was quashed and jailed for three years after it was referred to the Court of Appeal under the Unduly Lenient Sentence scheme.

    Updates to this page

    Published 2 July 2025

    MIL OSI United Kingdom

  • MIL-OSI United Kingdom: New sign language boards at playgrounds hope to boost communication skills through play

    Source: City of Leeds

    Children at playgrounds around Leeds are being encouraged to learn sign language as new fun educational boards are installed.

    Funded by the National Deaf Children’s Society, two boards have been put up at 10 playgrounds, showcasing the British Sign Language (BSL) fingerspelling alphabet and a selection of helpful words when playing.

    Early years can have a profound impact on deaf children’s language and social skills and the aim is that the signs will improve and encourage interaction between all children through playful interaction in the playgrounds.

    The grant was awarded as part of a scheme funding community projects that support the communication skills of deaf children.

    Bryony Hughes runs Leeds Deaf Children’s Society, which is affiliated with the National Deaf Children’s Society, and was the one to apply for the grant.

    She said: “We needed to use the money to improve the communication skills of local deaf children and we thought that putting the signs in parks was a way that we could reach as many families across Leeds as possible

    “The aim is that if more people, deaf and hearing, learn some basic BSL then it improves the skills of all involved, and also helps deaf people feel less isolated.

    “Our son is profoundly deaf and wears cochlear implants. When he’s not wearing them, we sign with him and it’s important that he has an additional way of communicating with us, and also with other deaf people.”

    The sign language boards have been installed in children’s play areas at Pudsey Park, Horsforth Hall Park, Bramley Park, Yeadon Tarnfield Park, Stanningley Park, Springhead Park Rothwell, Heritage Village, Blands Avenue Allerton Bywater, Cross Flatts Park, and East End Park.

    Councillor Helen Hayden, Leeds City Council’s executive member for children and families, and Councillor Mohammed Rafique, executive member for climate, energy, environment and green space, said: “The new signs are a great improvement to the playgrounds, encouraging interaction between all children, deaf and hearing. Learning basic BSL is useful to any person and we’re hoping that this will reach many local families and help them learn a new language.

    “We work hard to be a child friendly city and it is important that all children feel represented and included in spaces designed for them.”

    Angela Calder, of the National Deaf Children’s Society’s Community Grants programme, said: “This was a great idea from Leeds Deaf Children’s Society. We hope the new signs get people talking about British Sign Language and even using a few basic signs. It’s a really powerful way of helping deaf children feel more included.

    “Our Community Grants programme is all about initiatives like this – enabling groups and communities all around the UK to make a real, tangible difference on the ground, helping deaf children and young people feel part of their communities.”

    ENDS

    This community grant was awarded as part of a pilot run by the National Deaf Children’s Society. For more information, please visit: www.ndcs.org.uk/community-grants

    MIL OSI United Kingdom

  • MIL-OSI Security: Rochester Man Who Lured Minor to Hotel for Sex Pleads Guilty

    Source: US FBI

    ROCHESTER, N.Y.-U.S. Attorney Michael DiGiacomo announced today that Jonathan Woody, 31, of Rochester, NY, pleaded guilty to coercion and enticement of a minor, before U.S. District Judge Charles J. Siragusa. The charge carries a minimum penalty of 10 years in prison, maximum penalty of life and a $250,000 fine.

    Assistant U.S. Attorney Kyle P. Rossi, who is handling the case, stated that in January 2024, Woody engaged in sexually explicit online and text communications with a 13-year-old child that he met on social media. On January 2, 2024, Woody paid for an Uber to transport the child to a hotel in Greece, NY, where he rented a room. While at the hotel, Woody provided alcohol and marijuana and engaged in sexual acts with the child. After realizing that the child was missing from home, the child’s family called 911 to initiate a missing person investigation. The child returned home, at which time law enforcement learned of Woody’s interactions with the child. Subsequent investigation resulted in the identification and arrest of Woody.       

    The plea is the result of an investigation by the Monroe County Sheriff’s Office, under the direction of Sheriff Todd Baxter, the Greece Police Department, under the direction of Chief Michael Wood, and the Federal Bureau of Investigation Child Exploitation Task Force, under the direction of Acting Special Agent-in-Charge Mark Grimm.

    Sentencing is scheduled for October 30, 2025, at 9:30 a.m. before Judge Siragusa.  

    # # # #

    MIL Security OSI

  • MIL-OSI Africa: United Kingdom (UK) Reinforces Commitment to Ethiopia’s Economic Growth and Reform, Eyeing Key Investment Sectors


    Download logo

    The United Kingdom has significantly reinforced its commitment to boosting Ethiopia’s economic landscape, with Baroness Jane Ramsey of Wall Health, the UK Prime Minister’s Trade Envoy to Ethiopia, leading a crucial meeting with H.E. Semereta Sewasew, State Minister at the Ministry of Finance. As one of only 32 global Trade Envoys, Baroness Ramsey expressed her profound honor in her role and her eagerness to cultivate strong ties with Ethiopian partners and investors. The UK is keen to help Ethiopia expand and grow business and investment, aligning its support for Ethiopia’s economic reform efforts with both multilateral and bilateral development initiatives.

    Discussions during the meeting centered on Ethiopia’s evolving business environment, with Baroness Ramsey acknowledging notable improvements in the investment climate. H.E. Semereta Sewasew stressed the vital need for regulatory reforms, especially within the banking sector, alongside reforms in foreign exchange and governance, to foster a more open and competitive investment environment.

    The UK’s interest in Ethiopia spans several key sectors that are ripe for collaboration and investment. In telecommunications, the UK considers the potential introduction of a third operator to be “very, very important,” recognizing Ethiopia’s vast population and the opportunity to serve up to 200 million users. This development could significantly enhance connectivity across the country.

    In the creative industries, a substantial investment of £120 million was discussed, aimed at supporting sustainable creative ventures. The goal is to help these industries expand and thrive, thereby promoting economic diversification and creating new jobs. The agro-industry sector also features prominently in the UK’s investment plans. A notable example is a $300 million project focused on advancing crop production for dairy processing. The discussion highlighted that this initiative is currently assessing its environmental and social impacts and will begin with the development of processing plants in its pre-production phase. The UK is actively investing in this sector, aiming to boost agricultural productivity and add value through processing.

    Mining remains another key area, with gold mining specifically identified as a significant sector. This reaffirms the UK’s ongoing commitment to investing and collaborating within Ethiopia’s mining industry. In financial services, the UK expressed strong enthusiasm about engaging with Ethiopia’s newly opened financial sector. Emphasizing the importance of a competitive regulatory framework, particularly within banking, the UK sees great potential for growth and modernization.

    Finally, progress was reviewed on major infrastructure projects, including new airports and Ethiopia Electric Power initiatives on the country’s east side. Updates on the approval processes for these projects underscored the ongoing efforts to advance Ethiopia’s infrastructure development.

    H.E. Semereta Sewasew acknowledged that these sectors represent vital opportunities for strengthening UK-Ethiopia partnerships, driving economic growth, and fostering sustainable development. Baroness Ramsey reiterated the UK’s unwavering commitment to working closely with the Ethiopian government and stakeholders. She emphasized the importance of unlocking further investment and fostering a strong, mutually beneficial economic partnership, with the UK looking forward to continuing these vital discussions and collaborating on these important initiatives to support Ethiopia’s economic development.

    Distributed by APO Group on behalf of Ministry of Finance, Ethiopia.

    MIL OSI Africa

  • MIL-OSI United Kingdom: Unveiling of twinning display at Preston Peace Garden

    Source: City of Preston

    A new information board celebrating Preston’s town-twinning has been unveiled at Preston Peace Garden. 

    The event welcomed visitors from Almelo, one of Preston’s twinned towns in the Netherlands and Preston’s oldest twin town since 1948. Almelo’s connection with Preston is textiles, with the main industry being cotton. 

    Town twinning began after the Second World War, promoting friendship and understanding across boarders as part of a shared commitment to lasting peace in Europe. 

    Councillor Sue Whittam, Mayor of Preston said:  

    “We have a strong and positive relationship with all four of our European twin towns and we were pleased to welcome representatives from Almelo as our special guests to mark this occasion. 

    “The display board gives information about our important twinning partnerships and is a valuable addition to the Peace Garden which was completed last year as part of the wider rejuvenation of Friargate” 

    The board is in memory of Ian Hall (1926 – 2025), Honorary Freeman and Honorary Alderman of Preston, and Derek Smith (1934 – 2024) former Chair of the Twinning Partnership. It recognises their long-standing commitment to Preston’s twinning work. 

    The original aim of establishing twin towns was that if towns could establish friendly links, crossing political frontiers, then their nations would be less inclined to enter into conflict.  

    The modern concept of town twinning is to promote cultural and educational similarities and respect differences between the people of Europe. Bringing people together and allowing citizens of the twinned towns to experience and explore other cultures, whilst encouraging economic development and trade opportunities. 

    Alongside Almelo, Preston is also twinned with: 

    • Nȋme, France – since 1955  
    • Recklinghausen, Germany – since 1956  
    • Kalisz, Poland – since 1989 

    To read more about Preston’s special relationships with its twin towns see town twinning.

    Photo caption: Mayor of Preston Councillor Sue Whittam and Mayor of Almelo, Richard Korteland stood next to the twinnin display.

    MIL OSI United Kingdom

  • MIL-OSI United Kingdom: Stop the senseless vandalism in our play parks this summer

    Source: Northern Ireland City of Armagh

    Throughout the year, play parks across the Armagh City, Banbridge and Craigavon borough have experienced incidents of vandalism that not only cost the ratepayer money but also prevent children from enjoying vital play time and outdoor activities.

    These acts of damage – ranging from broken swings and burned slides to graffiti and smashed glass – often lead to the temporary closure of parks until repairs can be made.

    This means children across the borough miss out on safe, local spaces to play, exercise and socialise with friends – particularly during the school holidays when these parks are needed most. Vandalism discourages families from using the parks leading to less physical activity and community interaction.

    “This senseless vandalism in our parks has got to stop,” commented Chair of the Policing and Community Safety Partnership, Councillor Julie Flaherty. “Many of our play parks have been heavily invested in and completely refurbished recently – yet these acts of destruction are causing unnecessary inconvenience to our communities, costing the ratepayer money and leaving our children without local play parks.

    “Council investment has ensured that 43 of our 95 parks have been upgraded with inclusive features such as sensory equipment, wheelchair-accessible play items and communication boards.  Some parks even have braille panels and quiet areas.  The cost of damage to these isn’t just financial but causes emotional distress too.

    “Unfortunately, a lot of this vandalism is caused by young people and anti-social behaviour, therefore during the summer months we would urge parents and carers to be aware of their children’s whereabouts. Know who they are with and tell them about the serious consequences of anti-social behaviour. If they are unsupervised, they may get into trouble whether acting intentionally or through association with others.”

    The Council is encouraging local residents to help look after and protect these valued community spaces. Preventing vandalism requires a combination of community engagement, surveillance, education and regular maintenance.  If you witness any acts of vandalism or anti-social behaviour in a local play park, please report it by calling 101 or report online: https://www.psni.police.uk/report

    Together, we can keep our play parks safe, welcoming, and fun for all.

    MIL OSI United Kingdom

  • MIL-OSI United Kingdom: Derby in stronger position amidst continued financial challenges

    Source: City of Derby

    Derby City Council has improved its financial stability, reducing its in-year overspend and reliance on reserves, despite the ongoing challenges facing local government.  

    In a report detailing the final accounts for the 2024/2025 financial year, that will be presented to the Council’s Cabinet next week, Derby is reporting a more stable financial position despite continuing pressures from significant increases in demand for social care and homelessness, inflationary increases and the ongoing cost of living crisis.

    Due to sensible interventions, Derby significantly improved its financial sustainability, managing predicted overspend down from an expected £9.643 million in Quarter 1 to £3.996 million at the end of the year. This position has been strengthened by £10.5 million of underspends across the organisation and welcomed additional government funding.

    Crucially, reliance on General Fund reserves has also reduced, down to £0.493 million from a Quarter 1 forecast of £5.769 million as a large proportion of the final overspend was funded by contingencies held by the Council.

    The figures that will go to Cabinet next week show that at the end of 2024/2025, the general reserve fund has a balance of £8.658 million, supporting the Council’s plan to replenish its reserves by £10.140 million over three years. Additionally, 100% of the £8.121 million 2024/2025 savings target has also been achieved.

    Councillor Kathy Kozlowski, Cabinet Member for Governance and Finance said:

    We’ve had to work hard as a council to get to this position, and I’m grateful to all our staff who have helped us find new ways of working. I’m very pleased to see our accounts moving to a place of greater financial stability because it puts us on a firmer footing for delivering the services our citizens need. 

    Derby is reporting a much better position than many other local authorities, and the Chancellor of the Exchequer’s recent announcement of a three-year Local Government comprehensive spending review and fair funding reforms for the sector is welcome news. However, we are not out of the woods yet and must continue to be vigilant.  

    The continued financial sustainability of the Council continues to be a priority for us, allowing us to invest more into essential services that support some of our most vulnerable residents whilst also creating resilience for the future.

    The Council’s final year end position for 2024-2025 will be presented to Cabinet on Wednesday 9 June. The meeting will be available to watch on the Council’s YouTube channel.  
     

    MIL OSI United Kingdom

  • MIL-OSI Russia: “There is a need to develop and understand the phenomenon of digital trust of citizens in the state”

    Translation. Region: Russian Federal

    Source: State University Higher School of Economics – State University Higher School of Economics –

    The digital transformation of public administration should increase the speed of data processing and routine procedures, improve the technologies of intra-departmental and interdepartmental interaction. This creates the conditions for the transition to more effective management based on data. Vyshka.Glavnoe talked about the features of the digitalization of government agencies with the head of the International Laboratory of Digital Transformation in Public Administration IGMU HSE Evgeny Styrin.

    — Tell us how the laboratory was created?

    — The idea of the laboratory crystallized into an application in 2020. But five years earlier, colleagues at the HSE Institute of Public Administration and Governance, who were actively involved in expert activities, consulting, and solving everyday management problems, came up with the idea of activating scientific work, including participating in high-level conferences, preparing articles for leading journals, and conducting in-depth research in the field of public administration and related disciplines. Public administration as a science is closely related to management, political science, and even psychology. There was a need to create a separate team of highly qualified scientists. We understood that additional research competencies in public administration and giving a scientific impetus to its study were needed.

    We discussed the idea with the director of the institute, Andrey Borisovich Zhulin. When the university announced a competition to create international laboratories (the project “HSE Centres of Excellence“), we already had a research plan. In 2021, our application became one of the winners.

    — What role does the laboratory’s leading scientist, Professor Eran Vigoda-Gadot, play in its work?

    — Since 2021, the laboratory has been operating as an international one. Due to the difficult international situation, its scientific directors have changed. In early 2023, I offered the position of academic director of the laboratory to Eran Vigoda-Gadot, a professor at the University of Haifa. He agreed, and we managed to establish sustainable cooperation. He is an outstanding scholar, the author of several monographs on public administration and publications in leading global journals. And for him, the proposal to develop the topic of digital transformation was a challenge. A lot of work needs to be done to understand practical developments, transfer them to academic research and publish them. In fact, we need to rethink how all concepts and ideas are affected in the academic discipline of public administration. This is partly being done by our team. But there is an ambition to create a map of comparisons of key concepts of public administration and their evolution under the influence of the potential of digital technologies over the past 10-15 years.

    — What are the priority areas of transformation? How does improving document flow, interaction within and between institutions affect the quality of management?

    — The state and its individual institutions have current tasks, and we were looking for a topic that had not been developed theoretically. When Professor Vigoda-Gadot and I were forming the research program for the laboratory, we found out that a number of issues, for example, the digitalization of government services and even the introduction of artificial intelligence technologies, had been studied from an academic point of view and it was necessary to look for our own scientific niche. And then we turned to a very interesting problem of digital governance based on emotions. From a technological point of view, a lot has been studied. But citizens can reject government products due to emotional or psychophysiological rejection, an inconvenient human-computer interface, difficulties in using online services or, for example, mistrust of digital identification and other digital solutions of the state. We decided to look at the process of digital transformation from the point of view of citizens’ perception. There was a need to develop and understand the phenomenon of citizens’ digital trust in the state.

    At the same time, it was important for the laboratory to realize its mission of adequate implementation of state digital solutions, by which we mean compliance with public and civil values, principles of ethics. We want to expand and develop theories of perception and adaptation of digital technologies by citizens, taking into account the dimensions of digital trust and the emotional component. Now this is the main focus of the academic part of our research.

    — Doesn’t it happen that digitalization of processes leads to duplication of paper documents in electronic form and an increase in the office workload (which doctors and teachers have complained about)? Can this be avoided?

    — We believe that the accumulated experience reflects a fairly high level of digital maturity of government bodies, the ability to create and scale digital solutions. But what the citizen wants has not been fully studied. This is largely due to the technological optimism of digital solution manufacturers on the part of the state, they are confident that their technologies will be in demand by citizens.

    We see that this is not always the case. We are developing models of citizens’ perception of digital transformation, what external and value factors influence it, which takes time to create a foundation, if you will, a new theory of digital emotional management. A series of experiments and studies on this issue are being conducted, in practice, how ordinary citizens perceive and adapt various digital solutions for themselves is being studied.

    – For example?

    — In one of the experiments, we show respondents videos about digital transformation (DT), presenting it in a positive, negative and neutral way, and then ask questions about the perception of DT. We found out during the experiments that if you first evoke negative emotions, then the subsequent perception of digital solutions will be even more negative for a long period, even if the citizen successfully used their results.

    If you show the positive role of technology to the subject, the answer will also be positive, but the positive message evokes a relatively weak response compared to the negative one. This seems obvious, but no one has yet conducted such research specifically in the context of public administration. We did this and launched a cross-cultural comparative study in six countries: the United States, Germany, Poland, Israel, the United Kingdom and Russia.

    — Please name the key projects.

    — The study of emotional state digital governance is a key project that is divided into several areas. It is very important for us, I have given examples of the studies above.

    We believe that this is an area where we can say a new word in science. We hope that taking this factor into account by government bodies will allow for more accurate and personalized creation of digital solutions, taking into account the emotional characteristics of a person, increasing their demand and thereby increasing the efficiency of using budget funds for their development.

    Separate areas are the impact of digital platforms on the labor market and state regulation of communication and expression of will on platforms. This topic is studied by senior research fellow Evgeny Diskin. We also study the role of the personality of managers – vice-mayors, vice-governors, heads of departments – in the pace and direction of transformation (leading research fellow Anna Sanina, research fellow Aisylu Atayeva).

    — What is the laboratory’s work aimed at, when electronic interaction between residents of most cities and various government agencies is already, at first glance, well established?

    — We are investigating how digitalization differs from digitalization and digital transformation. The first involves converting paper documents into an electronic image. It does not yet allow a machine to recognize it. This is the first step, the zero stage for accumulating data in digital form, without it it is difficult to engage in digitalization of management.

    Then the process affects the internal processes of public administration, its interaction with citizens and business. It became clear that it was easier to organize communication when the state front office became electronic, through it it became possible to make requests, send data, and changes began. Electronic document flow appeared, which improved control over the passage of documents, which does not mean the cancellation of parallel circulation of paper documents, the authorities began to collect the first data in digital form in machine-readable formats.

    Digitalization continues, with its different stages occurring in parallel.

    — What is digital transformation then?

    — This is management based on data accumulated during the digitalization stage, using the digital footprint and profile of a citizen acting in different roles: taxpayer, patient, student or recipient of social benefits. Its success depends on how effectively it is possible to form predictive and recommendation models that use data about citizens to create new, higher quality services.

    But digital transformation is innovation and reform in the system of government bodies, often quite abrupt, and the most difficult thing to change is a person in different positions: an official, an elected representative, etc. It is very difficult to form a digital culture, its correct perception by employees, this turned out to be not obvious for the teams themselves within the government bodies, changes require effort and understandable technology.

    — Can you explain its benefits using a specific example?

    — For example, a person feels ill on the street. If there is a digital patient card, the ambulance that arrives on call will quickly understand what could have happened to him, provide him with effective assistance, which will help to avoid serious harm to health and, possibly, save a life. But this requires complete and consistent data, and well protected from fraudsters.

    The state should create not only convenient services, but also, taking into account the needs of citizens, convenient products that accompany different periods of their lives. Then it will be possible to achieve high personalization of the consideration of citizens’ needs and human attitude towards them.

    — What is it? How does personalization for citizens differ from customer-centricity in business?

    — This means that a person does not need to contact the state with a request; it, knowing his needs, will offer him the services he needs. For example, it will offer him a medical examination. And in difficult times — options for convenient options in ensuring health, social well-being, developing skills in the labor market, etc. This is a proactive approach, possible only thanks to digital transformation and high-quality data on the state side.

    — How do you see the practical application of the laboratory’s research?

    — Another of our missions, as we see it, is to form a pool of knowledge and competencies that are in demand by civil servants, so that they, for example, understand how to competently collect data, check and analyze it, form channels for exchanging information for quick interaction between different departments and agencies as a whole. That is, the key task of digital transformation for government agencies is to create a complete, cleaned, verified and balanced set of depersonalized data and exchange it safely.

    To do this, it is necessary to modernize the authorities themselves, change the attitude of civil servants to working with data, as well as improve the interfaces for interaction with citizens and businesses and, most importantly, monitor new technologies, their potential and emerging new digital solutions. At a certain stage, they will have to adapt and include the capabilities of machine learning and AI technologies in everyday activities. At the same time, it is necessary to protect the rights of citizens, the inviolability of their personal information, thereby forming a system of digital trust between the digital contour of the state and citizens.

    We are not only engaged in academic activities; we have a need to implement our ideas and developments in practice in the daily activities of government bodies.

    We are running a project on digital maturity of government bodies using the example of the Moscow City Control Complex. It includes five executive bodies engaged in different types of control in the city. We have implemented a digital maturity model that allows us to determine the current level of technology, the readiness of employees to use it, and also to outline roadmaps, according to which the Control Complex can solve the tasks of the digital control, where we highlight strategic management, personnel and process management, development of models and data, ensuring security and creating digital products.

    The project combines scientific and practical tasks, and now the control bodies have agreed with the assessments of digital maturity and are showing a willingness to change independently.

    — How different is the level of development of digital technologies in public administration in the capital and the regions?

    — We are happy with our interaction with Moscow, but it is a well-off, rich region with high-quality infrastructure and management. Many regions cannot afford large projects. They do not have the resources and competencies of civil servants to formulate the goals of future changes, as well as large IT companies with a sufficient number of qualified employees, that is, a developed IT industry.

    It is also important to understand that digital transformation is not only an expensive process, but also a complex one. You can spend a lot of money and end up with unclaimed digital products.

    Currently, federal authorities are actively promoting a platform approach, whereby regions can use ready-made digital platform solutions and connect to them, introducing components that take into account local specifics.

    Achieving digital maturity means, among other things, how successfully it will be possible to scale solutions developed at the federal level and in leading regions to the rest of Russia. Regions have different potential, digital solutions and the quality of human resources are different, so it is impossible to achieve the same results everywhere in the same amount of time.

    — What other applied projects could you name?

    — Together with Laboratory of human-centeredness and leadership practices HSE, we assessed the human-centricity of bank chatbots by order of the Bank of Russia. The Central Bank of the Russian Federation is concerned about protecting the rights and comfort of citizens as consumers in communication with a chatbot. We studied what properties banking solutions should have for this, and we are proud that the result was sent to all employees of the Bank of Russia, including regional offices.

    We are also developing a system for evaluating government chatbots for convenience and functionality, and we would like to add an emotional component to it – how citizens perceive this convenience, so that digital products are more adapted to their needs.

    — How do you use the results of your research activities in your academic work?

    — Part of the laboratory’s mission is to prepare training courses. We turn academic research into courses, complementing them, and then offer the courses to students and other listeners. This is what Yaroslav Ivanovich Kuzminov talks about — when research helps education and creates new partnerships. The laboratory staff teaches a university-wide elective course on the digital transformation of public administration. We are currently developing a business game for civil servants related to the specifics of working during the digital transformation. We will continue to form these courses and invest in continuing education programs to provide access to everyone — students, specialists improving their qualifications, and especially civil servants: how to adapt technologies, in particular AI, how to implement them so that they are convenient for all users.

    In 2023, we became the methodologists of a unique program for civil servants in African countries, carried out in collaboration with Center for African Studies HSE University. We developed the program content aimed at transferring Russian experience of digital transformation, supported the training of African students. They received DPO certificates in English.

    — What new ideas did you come up with during the implementation of the project?Mirror Laboratories“, jointly with Pskov State University?

    — We studied the geography of local communities, how municipal centers and communities of people in places of residence differ, how they perceive digital solutions and digital transformation, how residents of cities and small towns relate to them.

    — Can we talk about some kind of digital trust?

    — Yes, this is another direction of our research. We are thinking of scaling the project, determining the level of digital trust in the regions and finding out the reasons for the differences. It is important to determine them and understand what influences the different levels of digital trust in neighboring regions or even within the same territory.

    For example, the state has a digital solution, and we need to understand why people do not use it and what motivates citizens to come to the portals of departments. Or those registered on “Gosuslugi” use only part of the opportunities. It is not about technology. People often remember their previous, often even pre-digital experience of interaction with the state, often unsuccessful and unpleasant, and we need to work with citizens so that they use digital solutions more actively, trust them.

    The state should continue to make efforts to ensure that digital services are significantly more convenient than offline services. For example, a super service for applicants when applying to universities on the federal portal of state services, when the applicant adds the Unified State Exam scores, certificate and other documents to the application. This is so convenient that refusing to use the super service puts the citizen in a clearly disadvantageous situation in relation to those who use it.

    But to create such a super service, federal agencies had to organize data exchange, verify applicants’ statuses, and negotiate with universities about their connection to the service and participation in its work.

    — Can we say that some digital government projects did not take off in the provinces? Why?

    — In the Pskov region, we studied, among other things, how citizens use technologies, taking into account the distribution and geographical autonomy of individual districts and municipalities, and tried to understand the differences on the scale of the region. Wherever the federal center offers a ready-made platform solution, the regions receive an interface and design, technological logic and a mechanism for implementing government services, supplement them with their own data and rules, adjust them taking into account the specifics of regional legislation, and the picture in the regions differs.

    In some of them, we see a high level of mistrust in digital solutions, an irrational fear of being “counted”, “chipped”. We have to study this. Sometimes, people who do not want to accept digital products need to be offered unusual solutions and ways of communication. We plan to make a sample and a survey using our methodology and study interregional differences in the context of digital trust.

    — How is your interaction with the university’s departments and campuses organized?

    — We are at least a dual-campus lab: we have employees in Moscow and St. Petersburg. We also collaborated with Professor Svetlana Golovanova from the campus HSE University in Nizhny Novgorod. Therefore, we have a lot of online interaction, including holding international conferences, which does not exclude face-to-face events.

    We are a highly interdisciplinary unit, since public administration involves a combination of many sciences, so we actively interact with Institute of Cognitive Neurosciences, With Faculty of Social Sciences in general. We teach, recruit students, and since the current academic year, we have been working closely with Scientific and educational laboratory of political and psychological research under the leadership of Olga Gulevich. We conduct seminars with ISSEK, we cooperate with colleagues from Institute of Education HSE University. We are open to broad cooperation.

    — How is interaction with other universities developing?

    — We are developing partnerships with the Faculty of Public Administration of Lomonosov Moscow State University (they participate in our conferences), with the Baltic Federal University named after I. M. Kant, ITMO University, and also with St. Petersburg State University.

    — Which foreign universities do you cooperate with?

    — We had close contacts with the Center for Management Technologies at the University of Arizona. I hope they will be unfrozen in the near future. Cooperation with China is currently actively developing, in particular with the School of Public Administration at Huazhong University of Science and Technology in Wuhan. There is a common research program, we have applied for joint grants and hope for success with the City University of Hong Kong.

    Of course, we must mention the University of Haifa. When Professor Eran Vigoda-Gadot became the academic director, we prepared and extended a comprehensive cooperation program. It continues even under the current conditions.

    Finally, in Brazil, we collaborate with a highly ranked university, the Getúlio Vargas Foundation (FGV), as well as with the INSPER Institute, which is more of an expert than a scientific center, as well as with universities and expert centers in Kazakhstan and Indonesia. This is important for us to get inside information from experts on how digitalization is happening in other countries.

    — The large volume of data accumulated by the state creates the problem of its safety.

    — Fraud also occurred in the paper, “tube” world. Much data became available even before measures were taken to combat its leaks. We must collectively — the state, business and the scientific community — try to ensure that less new data leaks. Often the weak link is people, not a low level of technological protection. Even employees of large companies and banks used primitive passwords, and sometimes pasted them near their workplaces to the delight of fraudsters and hackers. Other reasons are a passion for enrichment, a lack of understanding of digital hygiene, and inattention. Therefore, we need to work with people, and from childhood, so that they know that hackers and fraud methods are improving and there are no guarantees against hacking. We must come to terms with this and find benefits in using digital tools, including receiving personalized services from the state at the expense of their data, and in a proactive mode.

    — How would you formulate the current goals of the laboratory?

    — We are focused on ensuring that the development of technologies and digital transformation in the public administration system are combined with their humanitarian, scientific and ethical understanding, protection of citizens’ rights and personal information.

    Please note: This information is raw content directly from the source of the information. It is exactly what the source states and does not reflect the position of MIL-OSI or its clients.

    MIL OSI Russia News

  • NCB busts global drug cartel spanning four continents; Amit Shah congratulates agencies for major crackdown

    Source: Government of India

    Source: Government of India (4)

    Union Home Minister and Minister of Cooperation, Amit Shah, on Wednesday lauded the Narcotics Control Bureau (NCB) and associated enforcement agencies for dismantling a sprawling global drug cartel that trafficked controlled pharmaceutical substances across four continents using sophisticated digital methods.

    In a post on the social media platform X, Shah said, “Congratulations to NCB and all agencies on busting a global drug cartel. The probe set a stellar example of multi-agency coordination, resulting in eight arrests and seizures of five consignments while triggering crackdowns in the US and Australia against the ring that operates across four continents and more than ten nations. Our agencies are constantly monitoring sophisticated modes like crypto payments and anonymous drop shippers used by these gangs. The Prime Minister Shri Narendra Modi-led government is determined to saw off every drug cartel and protect our youth, no matter where they operate from.”

    Operation MED MAX: From Delhi to Alabama

    Dubbed Operation MED MAX, the NCB’s HQ Operations Unit led one of the most extensive crackdowns against the illegal pharmaceutical drug trade. The operation uncovered a syndicate that exploited encrypted communication platforms, drop-shipping models, and cryptocurrency transactions to move controlled medicines between India, the USA, Australia, and Europe.

    The investigation began on May 25, 2025, when the NCB intercepted a vehicle near Mandi House in New Delhi, acting on confidential intelligence. Officers seized 3.7 kilograms of Tramadol tablets from two occupants, both pharmacy graduates from a private university in Noida.

    Their interrogation revealed that they operated as vendors on a major Indian B2B platform, selling pharmaceutical pills to clients overseas. Subsequent leads led investigators to a stockist in Roorkee and a key associate in Delhi’s Mayur Vihar, who disclosed connections to a coordinator in Udupi, Karnataka. This link revealed data on at least 50 international consignments, including 29 within the USA, 18 within Australia, and others bound for Estonia, Spain, and Switzerland.

    Global Cooperation and Major Seizures

    Based on intelligence provided by India’s NCB, global counterparts and Interpol tracked the syndicate’s operations. This led to the arrest of a major bulk re-shipper and money launderer in Alabama, USA, by the United States Drug Enforcement Administration (US DEA). The US operation resulted in the seizure of over 17,000 tablets of controlled medication and multiple cryptocurrency wallets linked to the syndicate.

    In parallel, law enforcement in Australia dismantled an illegal pill manufacturing facility directly connected to the network. Additional stockists and operatives are under scrutiny worldwide.

    Sophisticated Network and Modus Operandi

    Investigations revealed the cartel’s extensive use of encrypted messaging platforms such as Telegram and reliance on cryptocurrency, PayPal, and Western Union for payments. The network used anonymous international drop-shippers to evade detection, ensuring that operators never shipped within their home countries.

    The syndicate’s operations were managed through a major B2B platform where handlers paid for premium vendor profiles to attract buyers. A dedicated call centre in Udupi, employing around ten staff members—many allegedly unaware of the illegal activities—handled customer queries and orders. Payments were processed in cryptocurrency, with commissions distributed down the supply chain to re-shippers in various countries.

    Repeat buyers were systematically recruited as re-shippers or stockists, enabling the network’s organic expansion across multiple jurisdictions.

    Kingpin Traced to UAE

    The alleged mastermind coordinating the cartel’s international operations and finances has been traced to the UAE. Indian authorities are working closely with UAE officials to bring the individual to justice.

    Ongoing Investigations

    So far, eight individuals have been arrested in India in connection with the syndicate. The financial trail involving crypto wallets and suspected hawala transactions remains under investigation. The NCB is also coordinating with private sector platforms to curb illegal online pharmacies that openly market controlled substances.